<?xml version="1.0" encoding="UTF-8" standalone="no" ?>
<gpx xmlns="http://www.topografix.com/GPX/1/1" xmlns:xsi="http://www.w3.org/2001/XMLSchema-instance" xsi:schemaLocation="http://www.topografix.com/GPX/1/1 http://www.topografix.com/GPX/1/1/gpx.xsd" version="1.1" creator="VisuGPX - https://www.visugpx.com">
  <metadata>
    <name>ROUTE_2022-06-16 09:04:32 Granier</name>
    <desc><![CDATA[
<p>Heure de départ: 09:04 16 juin 2022<br/>Heure d'arrivée: 16:15 16 juin 2022<br/>Distance: 13,4 km (07:10)<br/>Temps déplacement: 05:23<br/>Vitesse moyenne: 1,87 km/h<br/>Vitesse moyenne mouv.: 2,49 km/h<br/>Vitesse Max.: 6,85 km/h<br/>Altitude minimale: 1074 m<br/>Altitude maximale: 1942 m<br/>Vitesse de montée: 407,6 m/h<br/>Vitesse de descente: 356,1 m/h<br/>Gain d'altitude: 998 m<br/>Perte d'altitude: 968 m<br/>Temps de montée: 02:26<br/>Temps de descente: 02:43<br/></p><hr align="center" width="480" style="height: 2px; width: 517px"/> Lapiaz et cheminée sécurisée à la descente.]]></desc>
  </metadata>
  <trk>
    <name><![CDATA[ROUTE_2022-06-16 09:04:32]]></name>
    <desc><![CDATA[<p>Heure de départ: 09:04 16 juin 2022<br/>Heure d'arrivée: 16:15 16 juin 2022<br/>Distance: 13,4 km (07:10)<br/>Temps déplacement: 05:23<br/>Vitesse moyenne: 1,87 km/h<br/>Vitesse moyenne mouv.: 2,49 km/h<br/>Vitesse Max.: 6,85 km/h<br/>Altitude minimale: 1074 m<br/>Altitude maximale: 1942 m<br/>Vitesse de montée: 407,6 m/h<br/>Vitesse de descente: 356,1 m/h<br/>Gain d'altitude: 998 m<br/>Perte d'altitude: 968 m<br/>Temps de montée: 02:26<br/>Temps de descente: 02:43<br/></p><hr align="center" width="480" style="height: 2px; width: 517px"/>]]></desc>
    <trkseg>
      <trkpt lat="45.44412" lon="5.9029">
        <ele>1055.53</ele>
        <time>2022-06-16T07:04:38.000Z</time>
      </trkpt>
      <trkpt lat="45.44399" lon="5.90309">
        <ele>1093.71</ele>
        <time>2022-06-16T07:04:43.000Z</time>
      </trkpt>
      <trkpt lat="45.44381" lon="5.90317">
        <ele>1066.87</ele>
        <time>2022-06-16T07:04:55.000Z</time>
      </trkpt>
      <trkpt lat="45.44398" lon="5.90328">
        <ele>1074.68</ele>
        <time>2022-06-16T07:06:59.000Z</time>
      </trkpt>
      <trkpt lat="45.44386" lon="5.90349">
        <ele>1072.92</ele>
        <time>2022-06-16T07:08:07.000Z</time>
      </trkpt>
      <trkpt lat="45.44388" lon="5.90375">
        <ele>1066.93</ele>
        <time>2022-06-16T07:08:28.000Z</time>
      </trkpt>
      <trkpt lat="45.44394" lon="5.904">
        <ele>1070.06</ele>
        <time>2022-06-16T07:08:46.000Z</time>
      </trkpt>
      <trkpt lat="45.444" lon="5.90425">
        <ele>1076.45</ele>
        <time>2022-06-16T07:09:05.000Z</time>
      </trkpt>
      <trkpt lat="45.44399" lon="5.90451">
        <ele>1075.3</ele>
        <time>2022-06-16T07:09:24.000Z</time>
      </trkpt>
      <trkpt lat="45.44402" lon="5.90477">
        <ele>1081.07</ele>
        <time>2022-06-16T07:09:45.000Z</time>
      </trkpt>
      <trkpt lat="45.44407" lon="5.90502">
        <ele>1082.86</ele>
        <time>2022-06-16T07:10:04.000Z</time>
      </trkpt>
      <trkpt lat="45.44412" lon="5.90528">
        <ele>1085.02</ele>
        <time>2022-06-16T07:10:27.000Z</time>
      </trkpt>
      <trkpt lat="45.44417" lon="5.90553">
        <ele>1090.63</ele>
        <time>2022-06-16T07:10:55.000Z</time>
      </trkpt>
      <trkpt lat="45.44422" lon="5.90578">
        <ele>1092.56</ele>
        <time>2022-06-16T07:11:16.000Z</time>
      </trkpt>
      <trkpt lat="45.44425" lon="5.90604">
        <ele>1097.88</ele>
        <time>2022-06-16T07:11:38.000Z</time>
      </trkpt>
      <trkpt lat="45.44422" lon="5.9063">
        <ele>1102.9</ele>
        <time>2022-06-16T07:11:58.000Z</time>
      </trkpt>
      <trkpt lat="45.4442" lon="5.90656">
        <ele>1101.67</ele>
        <time>2022-06-16T07:12:22.000Z</time>
      </trkpt>
      <trkpt lat="45.44423" lon="5.90682">
        <ele>1105.33</ele>
        <time>2022-06-16T07:12:45.000Z</time>
      </trkpt>
      <trkpt lat="45.44427" lon="5.90707">
        <ele>1104.74</ele>
        <time>2022-06-16T07:13:10.000Z</time>
      </trkpt>
      <trkpt lat="45.44425" lon="5.90733">
        <ele>1109.1</ele>
        <time>2022-06-16T07:13:31.000Z</time>
      </trkpt>
      <trkpt lat="45.44422" lon="5.90759">
        <ele>1114.73</ele>
        <time>2022-06-16T07:13:53.000Z</time>
      </trkpt>
      <trkpt lat="45.4444" lon="5.90761">
        <ele>1125.71</ele>
        <time>2022-06-16T07:14:33.000Z</time>
      </trkpt>
      <trkpt lat="45.44457" lon="5.9075">
        <ele>1130.33</ele>
        <time>2022-06-16T07:14:51.000Z</time>
      </trkpt>
      <trkpt lat="45.44474" lon="5.90743">
        <ele>1127.04</ele>
        <time>2022-06-16T07:15:23.000Z</time>
      </trkpt>
      <trkpt lat="45.44488" lon="5.90726">
        <ele>1133.07</ele>
        <time>2022-06-16T07:15:47.000Z</time>
      </trkpt>
      <trkpt lat="45.44502" lon="5.90708">
        <ele>1133.26</ele>
        <time>2022-06-16T07:16:02.000Z</time>
      </trkpt>
      <trkpt lat="45.44519" lon="5.90695">
        <ele>1137.41</ele>
        <time>2022-06-16T07:16:13.000Z</time>
      </trkpt>
      <trkpt lat="45.44536" lon="5.90686">
        <ele>1142.37</ele>
        <time>2022-06-16T07:16:40.000Z</time>
      </trkpt>
      <trkpt lat="45.4455" lon="5.9067">
        <ele>1149.67</ele>
        <time>2022-06-16T07:17:11.000Z</time>
      </trkpt>
      <trkpt lat="45.4456" lon="5.90648">
        <ele>1151.07</ele>
        <time>2022-06-16T07:17:37.000Z</time>
      </trkpt>
      <trkpt lat="45.44567" lon="5.90624">
        <ele>1153.06</ele>
        <time>2022-06-16T07:17:56.000Z</time>
      </trkpt>
      <trkpt lat="45.44584" lon="5.90616">
        <ele>1156.79</ele>
        <time>2022-06-16T07:18:26.000Z</time>
      </trkpt>
      <trkpt lat="45.44592" lon="5.90641">
        <ele>1162.14</ele>
        <time>2022-06-16T07:18:49.000Z</time>
      </trkpt>
      <trkpt lat="45.4461" lon="5.90637">
        <ele>1166.06</ele>
        <time>2022-06-16T07:19:15.000Z</time>
      </trkpt>
      <trkpt lat="45.44625" lon="5.90624">
        <ele>1173.74</ele>
        <time>2022-06-16T07:19:44.000Z</time>
      </trkpt>
      <trkpt lat="45.44638" lon="5.90606">
        <ele>1178.51</ele>
        <time>2022-06-16T07:20:09.000Z</time>
      </trkpt>
      <trkpt lat="45.44651" lon="5.90587">
        <ele>1178.88</ele>
        <time>2022-06-16T07:20:34.000Z</time>
      </trkpt>
      <trkpt lat="45.44658" lon="5.90563">
        <ele>1184.64</ele>
        <time>2022-06-16T07:20:52.000Z</time>
      </trkpt>
      <trkpt lat="45.44666" lon="5.9054">
        <ele>1184.29</ele>
        <time>2022-06-16T07:21:21.000Z</time>
      </trkpt>
      <trkpt lat="45.44673" lon="5.90515">
        <ele>1187.47</ele>
        <time>2022-06-16T07:21:46.000Z</time>
      </trkpt>
      <trkpt lat="45.44685" lon="5.90496">
        <ele>1192.28</ele>
        <time>2022-06-16T07:22:12.000Z</time>
      </trkpt>
      <trkpt lat="45.44703" lon="5.90489">
        <ele>1199.73</ele>
        <time>2022-06-16T07:22:40.000Z</time>
      </trkpt>
      <trkpt lat="45.44722" lon="5.90495">
        <ele>1201.27</ele>
        <time>2022-06-16T07:22:53.000Z</time>
      </trkpt>
      <trkpt lat="45.44741" lon="5.90491">
        <ele>1201.07</ele>
        <time>2022-06-16T07:23:09.000Z</time>
      </trkpt>
      <trkpt lat="45.44759" lon="5.90489">
        <ele>1208.51</ele>
        <time>2022-06-16T07:23:31.000Z</time>
      </trkpt>
      <trkpt lat="45.44777" lon="5.90488">
        <ele>1208.61</ele>
        <time>2022-06-16T07:24:09.000Z</time>
      </trkpt>
      <trkpt lat="45.44773" lon="5.90514">
        <ele>1217.28</ele>
        <time>2022-06-16T07:25:01.000Z</time>
      </trkpt>
      <trkpt lat="45.44764" lon="5.90536">
        <ele>1220.06</ele>
        <time>2022-06-16T07:25:23.000Z</time>
      </trkpt>
      <trkpt lat="45.44758" lon="5.9056">
        <ele>1227.64</ele>
        <time>2022-06-16T07:25:52.000Z</time>
      </trkpt>
      <trkpt lat="45.44752" lon="5.90586">
        <ele>1225.74</ele>
        <time>2022-06-16T07:26:16.000Z</time>
      </trkpt>
      <trkpt lat="45.4475" lon="5.90611">
        <ele>1226.91</ele>
        <time>2022-06-16T07:26:40.000Z</time>
      </trkpt>
      <trkpt lat="45.4475" lon="5.90637">
        <ele>1228.83</ele>
        <time>2022-06-16T07:26:55.000Z</time>
      </trkpt>
      <trkpt lat="45.44747" lon="5.90663">
        <ele>1232.19</ele>
        <time>2022-06-16T07:27:13.000Z</time>
      </trkpt>
      <trkpt lat="45.44745" lon="5.90689">
        <ele>1236.57</ele>
        <time>2022-06-16T07:27:41.000Z</time>
      </trkpt>
      <trkpt lat="45.44741" lon="5.90715">
        <ele>1240.81</ele>
        <time>2022-06-16T07:28:12.000Z</time>
      </trkpt>
      <trkpt lat="45.44742" lon="5.90741">
        <ele>1245.39</ele>
        <time>2022-06-16T07:28:36.000Z</time>
      </trkpt>
      <trkpt lat="45.44746" lon="5.90767">
        <ele>1250.91</ele>
        <time>2022-06-16T07:28:56.000Z</time>
      </trkpt>
      <trkpt lat="45.44753" lon="5.9079">
        <ele>1252.49</ele>
        <time>2022-06-16T07:29:17.000Z</time>
      </trkpt>
      <trkpt lat="45.44758" lon="5.90816">
        <ele>1251.44</ele>
        <time>2022-06-16T07:29:42.000Z</time>
      </trkpt>
      <trkpt lat="45.44757" lon="5.90842">
        <ele>1259.18</ele>
        <time>2022-06-16T07:30:12.000Z</time>
      </trkpt>
      <trkpt lat="45.44769" lon="5.90863">
        <ele>1269.75</ele>
        <time>2022-06-16T07:33:03.000Z</time>
      </trkpt>
      <trkpt lat="45.44786" lon="5.90872">
        <ele>1276.68</ele>
        <time>2022-06-16T07:33:35.000Z</time>
      </trkpt>
      <trkpt lat="45.44803" lon="5.90881">
        <ele>1287.08</ele>
        <time>2022-06-16T07:34:08.000Z</time>
      </trkpt>
      <trkpt lat="45.44821" lon="5.90882">
        <ele>1288.15</ele>
        <time>2022-06-16T07:34:32.000Z</time>
      </trkpt>
      <trkpt lat="45.44839" lon="5.90888">
        <ele>1293.01</ele>
        <time>2022-06-16T07:34:59.000Z</time>
      </trkpt>
      <trkpt lat="45.44857" lon="5.90892">
        <ele>1300.65</ele>
        <time>2022-06-16T07:35:24.000Z</time>
      </trkpt>
      <trkpt lat="45.44875" lon="5.909">
        <ele>1306.81</ele>
        <time>2022-06-16T07:35:46.000Z</time>
      </trkpt>
      <trkpt lat="45.44892" lon="5.90909">
        <ele>1316.41</ele>
        <time>2022-06-16T07:36:09.000Z</time>
      </trkpt>
      <trkpt lat="45.44908" lon="5.90922">
        <ele>1325.04</ele>
        <time>2022-06-16T07:36:36.000Z</time>
      </trkpt>
      <trkpt lat="45.44926" lon="5.90928">
        <ele>1318.7</ele>
        <time>2022-06-16T07:37:08.000Z</time>
      </trkpt>
      <trkpt lat="45.44943" lon="5.90937">
        <ele>1325.19</ele>
        <time>2022-06-16T07:37:39.000Z</time>
      </trkpt>
      <trkpt lat="45.44961" lon="5.90942">
        <ele>1330.04</ele>
        <time>2022-06-16T07:38:07.000Z</time>
      </trkpt>
      <trkpt lat="45.4498" lon="5.90945">
        <ele>1328.68</ele>
        <time>2022-06-16T07:38:40.000Z</time>
      </trkpt>
      <trkpt lat="45.44997" lon="5.90953">
        <ele>1330.06</ele>
        <time>2022-06-16T07:39:20.000Z</time>
      </trkpt>
      <trkpt lat="45.45015" lon="5.90948">
        <ele>1337.17</ele>
        <time>2022-06-16T07:39:58.000Z</time>
      </trkpt>
      <trkpt lat="45.45034" lon="5.90945">
        <ele>1344.11</ele>
        <time>2022-06-16T07:40:39.000Z</time>
      </trkpt>
      <trkpt lat="45.45052" lon="5.90945">
        <ele>1350.41</ele>
        <time>2022-06-16T07:41:15.000Z</time>
      </trkpt>
      <trkpt lat="45.45069" lon="5.90955">
        <ele>1360.54</ele>
        <time>2022-06-16T07:41:49.000Z</time>
      </trkpt>
      <trkpt lat="45.45085" lon="5.90968">
        <ele>1367.59</ele>
        <time>2022-06-16T07:42:21.000Z</time>
      </trkpt>
      <trkpt lat="45.45099" lon="5.90984">
        <ele>1372.22</ele>
        <time>2022-06-16T07:42:53.000Z</time>
      </trkpt>
      <trkpt lat="45.45109" lon="5.91006">
        <ele>1378.49</ele>
        <time>2022-06-16T07:43:24.000Z</time>
      </trkpt>
      <trkpt lat="45.45122" lon="5.91025">
        <ele>1384.99</ele>
        <time>2022-06-16T07:43:58.000Z</time>
      </trkpt>
      <trkpt lat="45.45124" lon="5.9105">
        <ele>1394.54</ele>
        <time>2022-06-16T07:44:36.000Z</time>
      </trkpt>
      <trkpt lat="45.45134" lon="5.91072">
        <ele>1391.21</ele>
        <time>2022-06-16T07:45:06.000Z</time>
      </trkpt>
      <trkpt lat="45.45143" lon="5.91095">
        <ele>1400.58</ele>
        <time>2022-06-16T07:45:47.000Z</time>
      </trkpt>
      <trkpt lat="45.45154" lon="5.91115">
        <ele>1403.37</ele>
        <time>2022-06-16T07:46:22.000Z</time>
      </trkpt>
      <trkpt lat="45.45165" lon="5.91136">
        <ele>1412.2</ele>
        <time>2022-06-16T07:46:54.000Z</time>
      </trkpt>
      <trkpt lat="45.45175" lon="5.91158">
        <ele>1420.6</ele>
        <time>2022-06-16T07:47:29.000Z</time>
      </trkpt>
      <trkpt lat="45.45189" lon="5.91177">
        <ele>1432.62</ele>
        <time>2022-06-16T07:48:02.000Z</time>
      </trkpt>
      <trkpt lat="45.452" lon="5.91197">
        <ele>1438.49</ele>
        <time>2022-06-16T07:48:34.000Z</time>
      </trkpt>
      <trkpt lat="45.4521" lon="5.91219">
        <ele>1442.77</ele>
        <time>2022-06-16T07:49:06.000Z</time>
      </trkpt>
      <trkpt lat="45.45213" lon="5.91246">
        <ele>1436.11</ele>
        <time>2022-06-16T07:49:33.000Z</time>
      </trkpt>
      <trkpt lat="45.45216" lon="5.91271">
        <ele>1443.43</ele>
        <time>2022-06-16T07:49:59.000Z</time>
      </trkpt>
      <trkpt lat="45.45216" lon="5.91298">
        <ele>1444.3</ele>
        <time>2022-06-16T07:52:24.000Z</time>
      </trkpt>
      <trkpt lat="45.45197" lon="5.91298">
        <ele>1458.99</ele>
        <time>2022-06-16T07:53:30.000Z</time>
      </trkpt>
      <trkpt lat="45.45183" lon="5.91314">
        <ele>1460.09</ele>
        <time>2022-06-16T07:54:12.000Z</time>
      </trkpt>
      <trkpt lat="45.45165" lon="5.91317">
        <ele>1466.71</ele>
        <time>2022-06-16T07:55:00.000Z</time>
      </trkpt>
      <trkpt lat="45.45147" lon="5.91317">
        <ele>1478.02</ele>
        <time>2022-06-16T07:56:01.000Z</time>
      </trkpt>
      <trkpt lat="45.45133" lon="5.91334">
        <ele>1485.6</ele>
        <time>2022-06-16T07:56:58.000Z</time>
      </trkpt>
      <trkpt lat="45.45114" lon="5.91334">
        <ele>1492.15</ele>
        <time>2022-06-16T07:57:36.000Z</time>
      </trkpt>
      <trkpt lat="45.45097" lon="5.91343">
        <ele>1501.02</ele>
        <time>2022-06-16T07:58:11.000Z</time>
      </trkpt>
      <trkpt lat="45.45091" lon="5.91366">
        <ele>1505.96</ele>
        <time>2022-06-16T07:59:18.000Z</time>
      </trkpt>
      <trkpt lat="45.45081" lon="5.91388">
        <ele>1516.83</ele>
        <time>2022-06-16T08:00:17.000Z</time>
      </trkpt>
      <trkpt lat="45.45067" lon="5.91406">
        <ele>1531.02</ele>
        <time>2022-06-16T08:01:09.000Z</time>
      </trkpt>
      <trkpt lat="45.45053" lon="5.91423">
        <ele>1551.85</ele>
        <time>2022-06-16T08:02:32.000Z</time>
      </trkpt>
      <trkpt lat="45.45044" lon="5.91445">
        <ele>1551.06</ele>
        <time>2022-06-16T08:03:13.000Z</time>
      </trkpt>
      <trkpt lat="45.45036" lon="5.91468">
        <ele>1557.28</ele>
        <time>2022-06-16T08:04:18.000Z</time>
      </trkpt>
      <trkpt lat="45.45028" lon="5.91492">
        <ele>1564.96</ele>
        <time>2022-06-16T08:05:32.000Z</time>
      </trkpt>
      <trkpt lat="45.45018" lon="5.91513">
        <ele>1583.93</ele>
        <time>2022-06-16T08:06:33.000Z</time>
      </trkpt>
      <trkpt lat="45.45008" lon="5.91535">
        <ele>1597.25</ele>
        <time>2022-06-16T08:07:28.000Z</time>
      </trkpt>
      <trkpt lat="45.45003" lon="5.9156">
        <ele>1603.43</ele>
        <time>2022-06-16T08:08:45.000Z</time>
      </trkpt>
      <trkpt lat="45.44996" lon="5.91584">
        <ele>1606.64</ele>
        <time>2022-06-16T08:09:50.000Z</time>
      </trkpt>
      <trkpt lat="45.44982" lon="5.916">
        <ele>1608.9</ele>
        <time>2022-06-16T08:16:12.000Z</time>
      </trkpt>
      <trkpt lat="45.44969" lon="5.91617">
        <ele>1610.34</ele>
        <time>2022-06-16T08:16:43.000Z</time>
      </trkpt>
      <trkpt lat="45.44976" lon="5.91642">
        <ele>1613.15</ele>
        <time>2022-06-16T08:17:47.000Z</time>
      </trkpt>
      <trkpt lat="45.44973" lon="5.91668">
        <ele>1620.93</ele>
        <time>2022-06-16T08:19:04.000Z</time>
      </trkpt>
      <trkpt lat="45.44981" lon="5.91693">
        <ele>1630.76</ele>
        <time>2022-06-16T08:20:05.000Z</time>
      </trkpt>
      <trkpt lat="45.44979" lon="5.91719">
        <ele>1660.69</ele>
        <time>2022-06-16T08:22:13.000Z</time>
      </trkpt>
      <trkpt lat="45.44996" lon="5.91731">
        <ele>1669.43</ele>
        <time>2022-06-16T08:22:54.000Z</time>
      </trkpt>
      <trkpt lat="45.45006" lon="5.91753">
        <ele>1674.63</ele>
        <time>2022-06-16T08:24:04.000Z</time>
      </trkpt>
      <trkpt lat="45.44992" lon="5.91772">
        <ele>1677.08</ele>
        <time>2022-06-16T08:25:06.000Z</time>
      </trkpt>
      <trkpt lat="45.44974" lon="5.91767">
        <ele>1714.94</ele>
        <time>2022-06-16T08:30:55.000Z</time>
      </trkpt>
      <trkpt lat="45.44958" lon="5.91778">
        <ele>1709.35</ele>
        <time>2022-06-16T08:31:15.000Z</time>
      </trkpt>
      <trkpt lat="45.44969" lon="5.91801">
        <ele>1714.17</ele>
        <time>2022-06-16T08:32:05.000Z</time>
      </trkpt>
      <trkpt lat="45.44981" lon="5.91781">
        <ele>1721.8</ele>
        <time>2022-06-16T08:32:45.000Z</time>
      </trkpt>
      <trkpt lat="45.44998" lon="5.91773">
        <ele>1726.12</ele>
        <time>2022-06-16T08:33:22.000Z</time>
      </trkpt>
      <trkpt lat="45.45016" lon="5.91781">
        <ele>1730.95</ele>
        <time>2022-06-16T08:33:53.000Z</time>
      </trkpt>
      <trkpt lat="45.45029" lon="5.91801">
        <ele>1739.05</ele>
        <time>2022-06-16T08:34:18.000Z</time>
      </trkpt>
      <trkpt lat="45.45043" lon="5.91818">
        <ele>1733.46</ele>
        <time>2022-06-16T08:34:39.000Z</time>
      </trkpt>
      <trkpt lat="45.45059" lon="5.91831">
        <ele>1735.24</ele>
        <time>2022-06-16T08:35:10.000Z</time>
      </trkpt>
      <trkpt lat="45.45076" lon="5.9184">
        <ele>1734.67</ele>
        <time>2022-06-16T08:35:29.000Z</time>
      </trkpt>
      <trkpt lat="45.45094" lon="5.91848">
        <ele>1733.66</ele>
        <time>2022-06-16T08:35:46.000Z</time>
      </trkpt>
      <trkpt lat="45.45113" lon="5.91851">
        <ele>1735.24</ele>
        <time>2022-06-16T08:37:48.000Z</time>
      </trkpt>
      <trkpt lat="45.45128" lon="5.91865">
        <ele>1732.25</ele>
        <time>2022-06-16T08:38:06.000Z</time>
      </trkpt>
      <trkpt lat="45.45146" lon="5.91872">
        <ele>1735.47</ele>
        <time>2022-06-16T08:38:37.000Z</time>
      </trkpt>
      <trkpt lat="45.45146" lon="5.91898">
        <ele>1740.28</ele>
        <time>2022-06-16T08:39:11.000Z</time>
      </trkpt>
      <trkpt lat="45.45137" lon="5.9192">
        <ele>1744.34</ele>
        <time>2022-06-16T08:40:33.000Z</time>
      </trkpt>
      <trkpt lat="45.45138" lon="5.91946">
        <ele>1765.51</ele>
        <time>2022-06-16T08:42:08.000Z</time>
      </trkpt>
      <trkpt lat="45.45128" lon="5.91968">
        <ele>1770.56</ele>
        <time>2022-06-16T08:43:39.000Z</time>
      </trkpt>
      <trkpt lat="45.45122" lon="5.91992">
        <ele>1791.69</ele>
        <time>2022-06-16T08:45:26.000Z</time>
      </trkpt>
      <trkpt lat="45.45117" lon="5.92016">
        <ele>1801.94</ele>
        <time>2022-06-16T08:47:09.000Z</time>
      </trkpt>
      <trkpt lat="45.4513" lon="5.92034">
        <ele>1817.69</ele>
        <time>2022-06-16T08:48:07.000Z</time>
      </trkpt>
      <trkpt lat="45.45147" lon="5.92046">
        <ele>1832.12</ele>
        <time>2022-06-16T08:52:18.000Z</time>
      </trkpt>
      <trkpt lat="45.45157" lon="5.92068">
        <ele>1836.64</ele>
        <time>2022-06-16T08:53:44.000Z</time>
      </trkpt>
      <trkpt lat="45.45174" lon="5.92079">
        <ele>1840.21</ele>
        <time>2022-06-16T08:54:56.000Z</time>
      </trkpt>
      <trkpt lat="45.45185" lon="5.92058">
        <ele>1851.27</ele>
        <time>2022-06-16T08:55:29.000Z</time>
      </trkpt>
      <trkpt lat="45.45201" lon="5.92048">
        <ele>1856.19</ele>
        <time>2022-06-16T08:56:06.000Z</time>
      </trkpt>
      <trkpt lat="45.45211" lon="5.92069">
        <ele>1852.77</ele>
        <time>2022-06-16T08:56:55.000Z</time>
      </trkpt>
      <trkpt lat="45.45223" lon="5.92091">
        <ele>1852.81</ele>
        <time>2022-06-16T08:57:18.000Z</time>
      </trkpt>
      <trkpt lat="45.45229" lon="5.92116">
        <ele>1851.52</ele>
        <time>2022-06-16T08:57:42.000Z</time>
      </trkpt>
      <trkpt lat="45.45239" lon="5.92138">
        <ele>1851.15</ele>
        <time>2022-06-16T08:58:22.000Z</time>
      </trkpt>
      <trkpt lat="45.45254" lon="5.92153">
        <ele>1853.98</ele>
        <time>2022-06-16T08:58:35.000Z</time>
      </trkpt>
      <trkpt lat="45.4527" lon="5.92165">
        <ele>1851.27</ele>
        <time>2022-06-16T08:59:09.000Z</time>
      </trkpt>
      <trkpt lat="45.45286" lon="5.92176">
        <ele>1847.74</ele>
        <time>2022-06-16T08:59:33.000Z</time>
      </trkpt>
      <trkpt lat="45.45301" lon="5.9219">
        <ele>1845.81</ele>
        <time>2022-06-16T08:59:56.000Z</time>
      </trkpt>
      <trkpt lat="45.45319" lon="5.92201">
        <ele>1847.38</ele>
        <time>2022-06-16T09:00:14.000Z</time>
      </trkpt>
      <trkpt lat="45.45336" lon="5.92212">
        <ele>1851.85</ele>
        <time>2022-06-16T09:00:32.000Z</time>
      </trkpt>
      <trkpt lat="45.45349" lon="5.9223">
        <ele>1852.04</ele>
        <time>2022-06-16T09:00:57.000Z</time>
      </trkpt>
      <trkpt lat="45.45367" lon="5.92239">
        <ele>1850.57</ele>
        <time>2022-06-16T09:01:17.000Z</time>
      </trkpt>
      <trkpt lat="45.45385" lon="5.92236">
        <ele>1855.29</ele>
        <time>2022-06-16T09:01:42.000Z</time>
      </trkpt>
      <trkpt lat="45.454" lon="5.92251">
        <ele>1855.8</ele>
        <time>2022-06-16T09:02:31.000Z</time>
      </trkpt>
      <trkpt lat="45.45417" lon="5.92243">
        <ele>1857.88</ele>
        <time>2022-06-16T09:04:22.000Z</time>
      </trkpt>
      <trkpt lat="45.45435" lon="5.92248">
        <ele>1857.85</ele>
        <time>2022-06-16T09:04:56.000Z</time>
      </trkpt>
      <trkpt lat="45.4545" lon="5.92263">
        <ele>1857.16</ele>
        <time>2022-06-16T09:09:56.000Z</time>
      </trkpt>
      <trkpt lat="45.45468" lon="5.92258">
        <ele>1863.06</ele>
        <time>2022-06-16T09:10:22.000Z</time>
      </trkpt>
      <trkpt lat="45.45476" lon="5.92281">
        <ele>1866.4</ele>
        <time>2022-06-16T09:10:54.000Z</time>
      </trkpt>
      <trkpt lat="45.45471" lon="5.92305">
        <ele>1852.25</ele>
        <time>2022-06-16T09:11:53.000Z</time>
      </trkpt>
      <trkpt lat="45.45488" lon="5.92309">
        <ele>1843.39</ele>
        <time>2022-06-16T09:13:17.000Z</time>
      </trkpt>
      <trkpt lat="45.45505" lon="5.9232">
        <ele>1845</ele>
        <time>2022-06-16T09:13:57.000Z</time>
      </trkpt>
      <trkpt lat="45.45522" lon="5.92332">
        <ele>1842.11</ele>
        <time>2022-06-16T09:14:40.000Z</time>
      </trkpt>
      <trkpt lat="45.45537" lon="5.92345">
        <ele>1841.36</ele>
        <time>2022-06-16T09:15:07.000Z</time>
      </trkpt>
      <trkpt lat="45.45554" lon="5.92355">
        <ele>1841.46</ele>
        <time>2022-06-16T09:15:33.000Z</time>
      </trkpt>
      <trkpt lat="45.4557" lon="5.92369">
        <ele>1843.82</ele>
        <time>2022-06-16T09:15:54.000Z</time>
      </trkpt>
      <trkpt lat="45.45587" lon="5.92376">
        <ele>1844.1</ele>
        <time>2022-06-16T09:16:21.000Z</time>
      </trkpt>
      <trkpt lat="45.45605" lon="5.92371">
        <ele>1844.85</ele>
        <time>2022-06-16T09:17:03.000Z</time>
      </trkpt>
      <trkpt lat="45.45623" lon="5.92375">
        <ele>1849</ele>
        <time>2022-06-16T09:17:34.000Z</time>
      </trkpt>
      <trkpt lat="45.4564" lon="5.92386">
        <ele>1849.63</ele>
        <time>2022-06-16T09:18:04.000Z</time>
      </trkpt>
      <trkpt lat="45.45658" lon="5.92384">
        <ele>1843.8</ele>
        <time>2022-06-16T09:18:28.000Z</time>
      </trkpt>
      <trkpt lat="45.45675" lon="5.92378">
        <ele>1853.49</ele>
        <time>2022-06-16T09:18:56.000Z</time>
      </trkpt>
      <trkpt lat="45.45694" lon="5.92373">
        <ele>1858.29</ele>
        <time>2022-06-16T09:19:19.000Z</time>
      </trkpt>
      <trkpt lat="45.45708" lon="5.92357">
        <ele>1861.11</ele>
        <time>2022-06-16T09:19:50.000Z</time>
      </trkpt>
      <trkpt lat="45.45725" lon="5.92347">
        <ele>1867.61</ele>
        <time>2022-06-16T09:20:41.000Z</time>
      </trkpt>
      <trkpt lat="45.45743" lon="5.92349">
        <ele>1880.99</ele>
        <time>2022-06-16T09:21:47.000Z</time>
      </trkpt>
      <trkpt lat="45.45761" lon="5.92352">
        <ele>1879.91</ele>
        <time>2022-06-16T09:22:21.000Z</time>
      </trkpt>
      <trkpt lat="45.4578" lon="5.92359">
        <ele>1882.28</ele>
        <time>2022-06-16T09:22:42.000Z</time>
      </trkpt>
      <trkpt lat="45.45797" lon="5.92364">
        <ele>1883.63</ele>
        <time>2022-06-16T09:23:06.000Z</time>
      </trkpt>
      <trkpt lat="45.45813" lon="5.92376">
        <ele>1883.46</ele>
        <time>2022-06-16T09:23:31.000Z</time>
      </trkpt>
      <trkpt lat="45.45827" lon="5.92395">
        <ele>1881.11</ele>
        <time>2022-06-16T09:23:50.000Z</time>
      </trkpt>
      <trkpt lat="45.45844" lon="5.92406">
        <ele>1882.67</ele>
        <time>2022-06-16T09:24:06.000Z</time>
      </trkpt>
      <trkpt lat="45.4586" lon="5.92418">
        <ele>1883.2</ele>
        <time>2022-06-16T09:24:20.000Z</time>
      </trkpt>
      <trkpt lat="45.45877" lon="5.92426">
        <ele>1886.37</ele>
        <time>2022-06-16T09:24:39.000Z</time>
      </trkpt>
      <trkpt lat="45.45896" lon="5.92432">
        <ele>1886.84</ele>
        <time>2022-06-16T09:25:09.000Z</time>
      </trkpt>
      <trkpt lat="45.45913" lon="5.9244">
        <ele>1889.32</ele>
        <time>2022-06-16T09:25:39.000Z</time>
      </trkpt>
      <trkpt lat="45.45927" lon="5.92457">
        <ele>1893.56</ele>
        <time>2022-06-16T09:26:25.000Z</time>
      </trkpt>
      <trkpt lat="45.45942" lon="5.92472">
        <ele>1895.8</ele>
        <time>2022-06-16T09:26:48.000Z</time>
      </trkpt>
      <trkpt lat="45.4596" lon="5.92474">
        <ele>1893.2</ele>
        <time>2022-06-16T09:27:04.000Z</time>
      </trkpt>
      <trkpt lat="45.45978" lon="5.92471">
        <ele>1893.02</ele>
        <time>2022-06-16T09:27:19.000Z</time>
      </trkpt>
      <trkpt lat="45.45997" lon="5.9247">
        <ele>1898.12</ele>
        <time>2022-06-16T09:27:33.000Z</time>
      </trkpt>
      <trkpt lat="45.46015" lon="5.92472">
        <ele>1897.38</ele>
        <time>2022-06-16T09:27:49.000Z</time>
      </trkpt>
      <trkpt lat="45.46033" lon="5.9248">
        <ele>1896.56</ele>
        <time>2022-06-16T09:28:07.000Z</time>
      </trkpt>
      <trkpt lat="45.46052" lon="5.92484">
        <ele>1897.63</ele>
        <time>2022-06-16T09:28:23.000Z</time>
      </trkpt>
      <trkpt lat="45.46057" lon="5.92509">
        <ele>1896.55</ele>
        <time>2022-06-16T09:29:33.000Z</time>
      </trkpt>
      <trkpt lat="45.46071" lon="5.92492">
        <ele>1892.26</ele>
        <time>2022-06-16T09:30:27.000Z</time>
      </trkpt>
      <trkpt lat="45.46087" lon="5.92478">
        <ele>1891.41</ele>
        <time>2022-06-16T09:31:36.000Z</time>
      </trkpt>
      <trkpt lat="45.46102" lon="5.92465">
        <ele>1894.41</ele>
        <time>2022-06-16T09:33:18.000Z</time>
      </trkpt>
      <trkpt lat="45.4612" lon="5.92459">
        <ele>1897.44</ele>
        <time>2022-06-16T09:33:41.000Z</time>
      </trkpt>
      <trkpt lat="45.46138" lon="5.9246">
        <ele>1900</ele>
        <time>2022-06-16T09:33:56.000Z</time>
      </trkpt>
      <trkpt lat="45.46156" lon="5.92468">
        <ele>1903.63</ele>
        <time>2022-06-16T09:34:12.000Z</time>
      </trkpt>
      <trkpt lat="45.46174" lon="5.92473">
        <ele>1898.8</ele>
        <time>2022-06-16T09:34:32.000Z</time>
      </trkpt>
      <trkpt lat="45.46192" lon="5.92474">
        <ele>1897.19</ele>
        <time>2022-06-16T09:34:51.000Z</time>
      </trkpt>
      <trkpt lat="45.4621" lon="5.92481">
        <ele>1896.21</ele>
        <time>2022-06-16T09:35:11.000Z</time>
      </trkpt>
      <trkpt lat="45.46228" lon="5.92482">
        <ele>1896.92</ele>
        <time>2022-06-16T09:35:27.000Z</time>
      </trkpt>
      <trkpt lat="45.46246" lon="5.92487">
        <ele>1898.31</ele>
        <time>2022-06-16T09:35:42.000Z</time>
      </trkpt>
      <trkpt lat="45.46265" lon="5.92493">
        <ele>1896.75</ele>
        <time>2022-06-16T09:36:02.000Z</time>
      </trkpt>
      <trkpt lat="45.46282" lon="5.925">
        <ele>1896.35</ele>
        <time>2022-06-16T09:36:19.000Z</time>
      </trkpt>
      <trkpt lat="45.46299" lon="5.9251">
        <ele>1897.23</ele>
        <time>2022-06-16T09:36:37.000Z</time>
      </trkpt>
      <trkpt lat="45.46317" lon="5.92517">
        <ele>1895.8</ele>
        <time>2022-06-16T09:36:55.000Z</time>
      </trkpt>
      <trkpt lat="45.46335" lon="5.92523">
        <ele>1900.37</ele>
        <time>2022-06-16T09:37:08.000Z</time>
      </trkpt>
      <trkpt lat="45.4635" lon="5.92539">
        <ele>1901.49</ele>
        <time>2022-06-16T09:37:31.000Z</time>
      </trkpt>
      <trkpt lat="45.46364" lon="5.92557">
        <ele>1905.73</ele>
        <time>2022-06-16T09:37:45.000Z</time>
      </trkpt>
      <trkpt lat="45.46377" lon="5.92574">
        <ele>1910.07</ele>
        <time>2022-06-16T09:38:02.000Z</time>
      </trkpt>
      <trkpt lat="45.46394" lon="5.92581">
        <ele>1908.78</ele>
        <time>2022-06-16T09:38:35.000Z</time>
      </trkpt>
      <trkpt lat="45.46412" lon="5.9259">
        <ele>1908.22</ele>
        <time>2022-06-16T09:39:02.000Z</time>
      </trkpt>
      <trkpt lat="45.4643" lon="5.92596">
        <ele>1904.87</ele>
        <time>2022-06-16T09:39:22.000Z</time>
      </trkpt>
      <trkpt lat="45.46448" lon="5.92596">
        <ele>1911.39</ele>
        <time>2022-06-16T09:39:42.000Z</time>
      </trkpt>
      <trkpt lat="45.46467" lon="5.92595">
        <ele>1909.02</ele>
        <time>2022-06-16T09:40:04.000Z</time>
      </trkpt>
      <trkpt lat="45.46485" lon="5.92597">
        <ele>1912.08</ele>
        <time>2022-06-16T09:40:22.000Z</time>
      </trkpt>
      <trkpt lat="45.46503" lon="5.92598">
        <ele>1909.98</ele>
        <time>2022-06-16T09:40:42.000Z</time>
      </trkpt>
      <trkpt lat="45.46522" lon="5.92598">
        <ele>1910.28</ele>
        <time>2022-06-16T09:40:58.000Z</time>
      </trkpt>
      <trkpt lat="45.46541" lon="5.92595">
        <ele>1911.98</ele>
        <time>2022-06-16T09:41:16.000Z</time>
      </trkpt>
      <trkpt lat="45.46557" lon="5.92582">
        <ele>1913.79</ele>
        <time>2022-06-16T09:41:33.000Z</time>
      </trkpt>
      <trkpt lat="45.46575" lon="5.92578">
        <ele>1915.35</ele>
        <time>2022-06-16T09:41:54.000Z</time>
      </trkpt>
      <trkpt lat="45.46593" lon="5.92572">
        <ele>1916.21</ele>
        <time>2022-06-16T09:42:17.000Z</time>
      </trkpt>
      <trkpt lat="45.4661" lon="5.92563">
        <ele>1920.92</ele>
        <time>2022-06-16T09:42:35.000Z</time>
      </trkpt>
      <trkpt lat="45.46626" lon="5.92549">
        <ele>1916.35</ele>
        <time>2022-06-16T09:42:51.000Z</time>
      </trkpt>
      <trkpt lat="45.4664" lon="5.92532">
        <ele>1910.27</ele>
        <time>2022-06-16T09:43:10.000Z</time>
      </trkpt>
      <trkpt lat="45.46653" lon="5.92513">
        <ele>1907.65</ele>
        <time>2022-06-16T09:43:31.000Z</time>
      </trkpt>
      <trkpt lat="45.4667" lon="5.92503">
        <ele>1908.84</ele>
        <time>2022-06-16T09:43:47.000Z</time>
      </trkpt>
      <trkpt lat="45.46689" lon="5.92501">
        <ele>1908.19</ele>
        <time>2022-06-16T09:44:07.000Z</time>
      </trkpt>
      <trkpt lat="45.46707" lon="5.92497">
        <ele>1907.93</ele>
        <time>2022-06-16T09:44:25.000Z</time>
      </trkpt>
      <trkpt lat="45.46723" lon="5.92486">
        <ele>1904.68</ele>
        <time>2022-06-16T09:44:45.000Z</time>
      </trkpt>
      <trkpt lat="45.4674" lon="5.92476">
        <ele>1903.64</ele>
        <time>2022-06-16T09:45:08.000Z</time>
      </trkpt>
      <trkpt lat="45.46749" lon="5.92453">
        <ele>1900.22</ele>
        <time>2022-06-16T09:45:40.000Z</time>
      </trkpt>
      <trkpt lat="45.46741" lon="5.92476">
        <ele>1903.17</ele>
        <time>2022-06-16T09:49:14.000Z</time>
      </trkpt>
      <trkpt lat="45.46725" lon="5.92491">
        <ele>1903.37</ele>
        <time>2022-06-16T09:52:39.000Z</time>
      </trkpt>
      <trkpt lat="45.46709" lon="5.92501">
        <ele>1903.72</ele>
        <time>2022-06-16T09:53:12.000Z</time>
      </trkpt>
      <trkpt lat="45.4669" lon="5.92503">
        <ele>1902.68</ele>
        <time>2022-06-16T09:53:34.000Z</time>
      </trkpt>
      <trkpt lat="45.46671" lon="5.92503">
        <ele>1902.07</ele>
        <time>2022-06-16T09:54:00.000Z</time>
      </trkpt>
      <trkpt lat="45.46653" lon="5.92502">
        <ele>1904.9</ele>
        <time>2022-06-16T09:54:21.000Z</time>
      </trkpt>
      <trkpt lat="45.46636" lon="5.92512">
        <ele>1913.76</ele>
        <time>2022-06-16T09:54:53.000Z</time>
      </trkpt>
      <trkpt lat="45.46618" lon="5.92516">
        <ele>1916.65</ele>
        <time>2022-06-16T09:55:33.000Z</time>
      </trkpt>
      <trkpt lat="45.466" lon="5.92516">
        <ele>1919.54</ele>
        <time>2022-06-16T09:56:12.000Z</time>
      </trkpt>
      <trkpt lat="45.46582" lon="5.92512">
        <ele>1918.1</ele>
        <time>2022-06-16T09:56:37.000Z</time>
      </trkpt>
      <trkpt lat="45.46564" lon="5.92514">
        <ele>1919.49</ele>
        <time>2022-06-16T09:56:52.000Z</time>
      </trkpt>
      <trkpt lat="45.46545" lon="5.92509">
        <ele>1924.88</ele>
        <time>2022-06-16T09:57:10.000Z</time>
      </trkpt>
      <trkpt lat="45.46527" lon="5.92509">
        <ele>1929.71</ele>
        <time>2022-06-16T09:57:26.000Z</time>
      </trkpt>
      <trkpt lat="45.46509" lon="5.92504">
        <ele>1931.95</ele>
        <time>2022-06-16T09:58:04.000Z</time>
      </trkpt>
      <trkpt lat="45.46491" lon="5.92509">
        <ele>1932.73</ele>
        <time>2022-06-16T09:58:32.000Z</time>
      </trkpt>
      <trkpt lat="45.46473" lon="5.9251">
        <ele>1932.64</ele>
        <time>2022-06-16T10:00:07.000Z</time>
      </trkpt>
      <trkpt lat="45.46458" lon="5.92527">
        <ele>1929.1</ele>
        <time>2022-06-16T10:00:27.000Z</time>
      </trkpt>
      <trkpt lat="45.46441" lon="5.92536">
        <ele>1923.84</ele>
        <time>2022-06-16T10:00:45.000Z</time>
      </trkpt>
      <trkpt lat="45.46423" lon="5.92541">
        <ele>1920.04</ele>
        <time>2022-06-16T10:01:06.000Z</time>
      </trkpt>
      <trkpt lat="45.46413" lon="5.92563">
        <ele>1918.35</ele>
        <time>2022-06-16T10:01:24.000Z</time>
      </trkpt>
      <trkpt lat="45.46397" lon="5.92575">
        <ele>1916.61</ele>
        <time>2022-06-16T10:01:48.000Z</time>
      </trkpt>
      <trkpt lat="45.46379" lon="5.92579">
        <ele>1916.44</ele>
        <time>2022-06-16T10:02:14.000Z</time>
      </trkpt>
      <trkpt lat="45.46364" lon="5.92564">
        <ele>1907.15</ele>
        <time>2022-06-16T10:02:37.000Z</time>
      </trkpt>
      <trkpt lat="45.46352" lon="5.92544">
        <ele>1900.96</ele>
        <time>2022-06-16T10:02:57.000Z</time>
      </trkpt>
      <trkpt lat="45.46337" lon="5.92528">
        <ele>1895.87</ele>
        <time>2022-06-16T10:03:15.000Z</time>
      </trkpt>
      <trkpt lat="45.46321" lon="5.92516">
        <ele>1893.71</ele>
        <time>2022-06-16T10:03:33.000Z</time>
      </trkpt>
      <trkpt lat="45.46302" lon="5.9251">
        <ele>1894.06</ele>
        <time>2022-06-16T10:03:48.000Z</time>
      </trkpt>
      <trkpt lat="45.46285" lon="5.925">
        <ele>1891.7</ele>
        <time>2022-06-16T10:04:05.000Z</time>
      </trkpt>
      <trkpt lat="45.46268" lon="5.92492">
        <ele>1890.51</ele>
        <time>2022-06-16T10:04:20.000Z</time>
      </trkpt>
      <trkpt lat="45.4625" lon="5.92483">
        <ele>1889.51</ele>
        <time>2022-06-16T10:04:36.000Z</time>
      </trkpt>
      <trkpt lat="45.46232" lon="5.92481">
        <ele>1889.96</ele>
        <time>2022-06-16T10:04:51.000Z</time>
      </trkpt>
      <trkpt lat="45.46213" lon="5.9248">
        <ele>1887.97</ele>
        <time>2022-06-16T10:05:09.000Z</time>
      </trkpt>
      <trkpt lat="45.46194" lon="5.92477">
        <ele>1893.07</ele>
        <time>2022-06-16T10:05:25.000Z</time>
      </trkpt>
      <trkpt lat="45.46176" lon="5.92476">
        <ele>1896.07</ele>
        <time>2022-06-16T10:05:41.000Z</time>
      </trkpt>
      <trkpt lat="45.46158" lon="5.92472">
        <ele>1899.89</ele>
        <time>2022-06-16T10:05:57.000Z</time>
      </trkpt>
      <trkpt lat="45.46141" lon="5.92462">
        <ele>1893.14</ele>
        <time>2022-06-16T10:06:15.000Z</time>
      </trkpt>
      <trkpt lat="45.46122" lon="5.92458">
        <ele>1893.26</ele>
        <time>2022-06-16T10:06:30.000Z</time>
      </trkpt>
      <trkpt lat="45.46105" lon="5.92464">
        <ele>1889.56</ele>
        <time>2022-06-16T10:06:45.000Z</time>
      </trkpt>
      <trkpt lat="45.46089" lon="5.92478">
        <ele>1887.25</ele>
        <time>2022-06-16T10:07:03.000Z</time>
      </trkpt>
      <trkpt lat="45.46074" lon="5.92494">
        <ele>1892.4</ele>
        <time>2022-06-16T10:07:24.000Z</time>
      </trkpt>
      <trkpt lat="45.46058" lon="5.92506">
        <ele>1891.18</ele>
        <time>2022-06-16T10:07:50.000Z</time>
      </trkpt>
      <trkpt lat="45.46048" lon="5.92484">
        <ele>1895.76</ele>
        <time>2022-06-16T10:08:16.000Z</time>
      </trkpt>
      <trkpt lat="45.4603" lon="5.92477">
        <ele>1889.99</ele>
        <time>2022-06-16T10:08:35.000Z</time>
      </trkpt>
      <trkpt lat="45.46012" lon="5.92474">
        <ele>1895.8</ele>
        <time>2022-06-16T10:08:51.000Z</time>
      </trkpt>
      <trkpt lat="45.45994" lon="5.92475">
        <ele>1894.59</ele>
        <time>2022-06-16T10:09:08.000Z</time>
      </trkpt>
      <trkpt lat="45.45975" lon="5.92477">
        <ele>1893.06</ele>
        <time>2022-06-16T10:09:23.000Z</time>
      </trkpt>
      <trkpt lat="45.45956" lon="5.92479">
        <ele>1895.01</ele>
        <time>2022-06-16T10:09:43.000Z</time>
      </trkpt>
      <trkpt lat="45.45939" lon="5.92471">
        <ele>1898.5</ele>
        <time>2022-06-16T10:10:02.000Z</time>
      </trkpt>
      <trkpt lat="45.45925" lon="5.92454">
        <ele>1899.66</ele>
        <time>2022-06-16T10:10:24.000Z</time>
      </trkpt>
      <trkpt lat="45.4591" lon="5.92438">
        <ele>1894.58</ele>
        <time>2022-06-16T10:11:00.000Z</time>
      </trkpt>
      <trkpt lat="45.45892" lon="5.92432">
        <ele>1890.65</ele>
        <time>2022-06-16T10:11:22.000Z</time>
      </trkpt>
      <trkpt lat="45.45874" lon="5.92426">
        <ele>1890.46</ele>
        <time>2022-06-16T10:11:46.000Z</time>
      </trkpt>
      <trkpt lat="45.45856" lon="5.92416">
        <ele>1886.93</ele>
        <time>2022-06-16T10:12:04.000Z</time>
      </trkpt>
      <trkpt lat="45.45839" lon="5.92407">
        <ele>1889.44</ele>
        <time>2022-06-16T10:12:20.000Z</time>
      </trkpt>
      <trkpt lat="45.45824" lon="5.92392">
        <ele>1889.64</ele>
        <time>2022-06-16T10:12:41.000Z</time>
      </trkpt>
      <trkpt lat="45.45812" lon="5.92372">
        <ele>1891.08</ele>
        <time>2022-06-16T10:12:59.000Z</time>
      </trkpt>
      <trkpt lat="45.45795" lon="5.92361">
        <ele>1885.09</ele>
        <time>2022-06-16T10:13:29.000Z</time>
      </trkpt>
      <trkpt lat="45.45777" lon="5.92358">
        <ele>1883.49</ele>
        <time>2022-06-16T10:13:56.000Z</time>
      </trkpt>
      <trkpt lat="45.4576" lon="5.9235">
        <ele>1882.43</ele>
        <time>2022-06-16T10:14:23.000Z</time>
      </trkpt>
      <trkpt lat="45.45741" lon="5.92355">
        <ele>1887.39</ele>
        <time>2022-06-16T10:15:01.000Z</time>
      </trkpt>
      <trkpt lat="45.45723" lon="5.92361">
        <ele>1886.76</ele>
        <time>2022-06-16T10:16:11.000Z</time>
      </trkpt>
      <trkpt lat="45.45705" lon="5.92368">
        <ele>1880.25</ele>
        <time>2022-06-16T10:17:11.000Z</time>
      </trkpt>
      <trkpt lat="45.45689" lon="5.9238">
        <ele>1868</ele>
        <time>2022-06-16T10:17:40.000Z</time>
      </trkpt>
      <trkpt lat="45.45672" lon="5.92389">
        <ele>1860.54</ele>
        <time>2022-06-16T10:18:03.000Z</time>
      </trkpt>
      <trkpt lat="45.45654" lon="5.92388">
        <ele>1856.52</ele>
        <time>2022-06-16T10:18:26.000Z</time>
      </trkpt>
      <trkpt lat="45.45637" lon="5.92378">
        <ele>1849.51</ele>
        <time>2022-06-16T10:18:52.000Z</time>
      </trkpt>
      <trkpt lat="45.4562" lon="5.9237">
        <ele>1844.78</ele>
        <time>2022-06-16T10:19:26.000Z</time>
      </trkpt>
      <trkpt lat="45.45601" lon="5.9237">
        <ele>1850.85</ele>
        <time>2022-06-16T10:19:47.000Z</time>
      </trkpt>
      <trkpt lat="45.45583" lon="5.92377">
        <ele>1845.85</ele>
        <time>2022-06-16T10:20:23.000Z</time>
      </trkpt>
      <trkpt lat="45.45566" lon="5.92368">
        <ele>1844.27</ele>
        <time>2022-06-16T10:20:50.000Z</time>
      </trkpt>
      <trkpt lat="45.4555" lon="5.92357">
        <ele>1844.45</ele>
        <time>2022-06-16T10:21:17.000Z</time>
      </trkpt>
      <trkpt lat="45.45533" lon="5.92347">
        <ele>1841.74</ele>
        <time>2022-06-16T10:21:42.000Z</time>
      </trkpt>
      <trkpt lat="45.45517" lon="5.92332">
        <ele>1842.58</ele>
        <time>2022-06-16T10:22:04.000Z</time>
      </trkpt>
      <trkpt lat="45.45503" lon="5.92317">
        <ele>1844.85</ele>
        <time>2022-06-16T10:22:33.000Z</time>
      </trkpt>
      <trkpt lat="45.45486" lon="5.92306">
        <ele>1842.17</ele>
        <time>2022-06-16T10:23:23.000Z</time>
      </trkpt>
      <trkpt lat="45.45479" lon="5.92282">
        <ele>1847.56</ele>
        <time>2022-06-16T10:25:17.000Z</time>
      </trkpt>
      <trkpt lat="45.45475" lon="5.92256">
        <ele>1860.45</ele>
        <time>2022-06-16T10:26:12.000Z</time>
      </trkpt>
      <trkpt lat="45.45456" lon="5.92257">
        <ele>1858.88</ele>
        <time>2022-06-16T10:26:39.000Z</time>
      </trkpt>
      <trkpt lat="45.45438" lon="5.92246">
        <ele>1858.79</ele>
        <time>2022-06-16T10:28:02.000Z</time>
      </trkpt>
      <trkpt lat="45.4542" lon="5.92238">
        <ele>1853.01</ele>
        <time>2022-06-16T10:28:33.000Z</time>
      </trkpt>
      <trkpt lat="45.45403" lon="5.92248">
        <ele>1852.53</ele>
        <time>2022-06-16T10:28:55.000Z</time>
      </trkpt>
      <trkpt lat="45.45387" lon="5.92235">
        <ele>1857.19</ele>
        <time>2022-06-16T10:29:17.000Z</time>
      </trkpt>
      <trkpt lat="45.4537" lon="5.92244">
        <ele>1862.74</ele>
        <time>2022-06-16T10:29:45.000Z</time>
      </trkpt>
      <trkpt lat="45.45357" lon="5.92262">
        <ele>1860.01</ele>
        <time>2022-06-16T10:30:14.000Z</time>
      </trkpt>
      <trkpt lat="45.45338" lon="5.92267">
        <ele>1872.15</ele>
        <time>2022-06-16T10:30:42.000Z</time>
      </trkpt>
      <trkpt lat="45.4532" lon="5.9227">
        <ele>1872.39</ele>
        <time>2022-06-16T10:31:41.000Z</time>
      </trkpt>
      <trkpt lat="45.45305" lon="5.92256">
        <ele>1874.05</ele>
        <time>2022-06-16T10:32:19.000Z</time>
      </trkpt>
      <trkpt lat="45.45293" lon="5.92236">
        <ele>1881.54</ele>
        <time>2022-06-16T10:33:02.000Z</time>
      </trkpt>
      <trkpt lat="45.45275" lon="5.92228">
        <ele>1881.86</ele>
        <time>2022-06-16T10:33:35.000Z</time>
      </trkpt>
      <trkpt lat="45.45258" lon="5.92219">
        <ele>1882.48</ele>
        <time>2022-06-16T10:34:10.000Z</time>
      </trkpt>
      <trkpt lat="45.45241" lon="5.92209">
        <ele>1882.34</ele>
        <time>2022-06-16T10:34:36.000Z</time>
      </trkpt>
      <trkpt lat="45.45224" lon="5.92199">
        <ele>1892.21</ele>
        <time>2022-06-16T10:35:02.000Z</time>
      </trkpt>
      <trkpt lat="45.45209" lon="5.92186">
        <ele>1897.92</ele>
        <time>2022-06-16T10:35:31.000Z</time>
      </trkpt>
      <trkpt lat="45.4519" lon="5.92183">
        <ele>1897.39</ele>
        <time>2022-06-16T10:36:04.000Z</time>
      </trkpt>
      <trkpt lat="45.45173" lon="5.92178">
        <ele>1904.86</ele>
        <time>2022-06-16T10:36:26.000Z</time>
      </trkpt>
      <trkpt lat="45.45154" lon="5.92177">
        <ele>1906.76</ele>
        <time>2022-06-16T10:36:43.000Z</time>
      </trkpt>
      <trkpt lat="45.45136" lon="5.9218">
        <ele>1909.23</ele>
        <time>2022-06-16T10:37:04.000Z</time>
      </trkpt>
      <trkpt lat="45.45118" lon="5.92169">
        <ele>1908.97</ele>
        <time>2022-06-16T10:37:19.000Z</time>
      </trkpt>
      <trkpt lat="45.451" lon="5.92172">
        <ele>1909.66</ele>
        <time>2022-06-16T10:37:35.000Z</time>
      </trkpt>
      <trkpt lat="45.45081" lon="5.92172">
        <ele>1912.82</ele>
        <time>2022-06-16T10:37:59.000Z</time>
      </trkpt>
      <trkpt lat="45.45063" lon="5.92164">
        <ele>1914.16</ele>
        <time>2022-06-16T10:38:21.000Z</time>
      </trkpt>
      <trkpt lat="45.45048" lon="5.92151">
        <ele>1916.46</ele>
        <time>2022-06-16T10:38:46.000Z</time>
      </trkpt>
      <trkpt lat="45.45034" lon="5.92134">
        <ele>1923.3</ele>
        <time>2022-06-16T10:39:16.000Z</time>
      </trkpt>
      <trkpt lat="45.45019" lon="5.92118">
        <ele>1926.3</ele>
        <time>2022-06-16T10:39:45.000Z</time>
      </trkpt>
      <trkpt lat="45.45005" lon="5.92101">
        <ele>1931.21</ele>
        <time>2022-06-16T10:40:01.000Z</time>
      </trkpt>
      <trkpt lat="45.44987" lon="5.92096">
        <ele>1930</ele>
        <time>2022-06-16T10:40:16.000Z</time>
      </trkpt>
      <trkpt lat="45.44978" lon="5.92073">
        <ele>1929.05</ele>
        <time>2022-06-16T10:40:42.000Z</time>
      </trkpt>
      <trkpt lat="45.44961" lon="5.92065">
        <ele>1926.95</ele>
        <time>2022-06-16T10:40:57.000Z</time>
      </trkpt>
      <trkpt lat="45.44943" lon="5.92066">
        <ele>1929.92</ele>
        <time>2022-06-16T10:41:16.000Z</time>
      </trkpt>
      <trkpt lat="45.44926" lon="5.92056">
        <ele>1925.88</ele>
        <time>2022-06-16T10:41:39.000Z</time>
      </trkpt>
      <trkpt lat="45.44908" lon="5.92048">
        <ele>1927.8</ele>
        <time>2022-06-16T10:41:53.000Z</time>
      </trkpt>
      <trkpt lat="45.44891" lon="5.92039">
        <ele>1929.95</ele>
        <time>2022-06-16T10:42:16.000Z</time>
      </trkpt>
      <trkpt lat="45.44875" lon="5.92026">
        <ele>1932.18</ele>
        <time>2022-06-16T10:42:42.000Z</time>
      </trkpt>
      <trkpt lat="45.44862" lon="5.92007">
        <ele>1934.56</ele>
        <time>2022-06-16T10:43:06.000Z</time>
      </trkpt>
      <trkpt lat="45.44849" lon="5.91989">
        <ele>1940.61</ele>
        <time>2022-06-16T10:43:32.000Z</time>
      </trkpt>
      <trkpt lat="45.44833" lon="5.91978">
        <ele>1947.36</ele>
        <time>2022-06-16T10:43:54.000Z</time>
      </trkpt>
      <trkpt lat="45.44816" lon="5.91967">
        <ele>1946.24</ele>
        <time>2022-06-16T10:44:13.000Z</time>
      </trkpt>
      <trkpt lat="45.44797" lon="5.91969">
        <ele>1943.23</ele>
        <time>2022-06-16T10:44:36.000Z</time>
      </trkpt>
      <trkpt lat="45.44779" lon="5.91973">
        <ele>1943.43</ele>
        <time>2022-06-16T10:45:02.000Z</time>
      </trkpt>
      <trkpt lat="45.44761" lon="5.91971">
        <ele>1946.36</ele>
        <time>2022-06-16T10:45:22.000Z</time>
      </trkpt>
      <trkpt lat="45.44746" lon="5.91986">
        <ele>1941.68</ele>
        <time>2022-06-16T10:46:00.000Z</time>
      </trkpt>
      <trkpt lat="45.44729" lon="5.91998">
        <ele>1938.02</ele>
        <time>2022-06-16T10:46:23.000Z</time>
      </trkpt>
      <trkpt lat="45.44711" lon="5.92008">
        <ele>1935.32</ele>
        <time>2022-06-16T10:46:40.000Z</time>
      </trkpt>
      <trkpt lat="45.44694" lon="5.92018">
        <ele>1936.96</ele>
        <time>2022-06-16T10:46:57.000Z</time>
      </trkpt>
      <trkpt lat="45.44676" lon="5.92011">
        <ele>1927.4</ele>
        <time>2022-06-16T10:49:39.000Z</time>
      </trkpt>
      <trkpt lat="45.44692" lon="5.92025">
        <ele>1928.9</ele>
        <time>2022-06-16T11:14:44.000Z</time>
      </trkpt>
      <trkpt lat="45.44709" lon="5.92033">
        <ele>1925.51</ele>
        <time>2022-06-16T11:34:28.000Z</time>
      </trkpt>
      <trkpt lat="45.44723" lon="5.9205">
        <ele>1921.5</ele>
        <time>2022-06-16T11:34:49.000Z</time>
      </trkpt>
      <trkpt lat="45.4474" lon="5.92058">
        <ele>1918.07</ele>
        <time>2022-06-16T11:35:15.000Z</time>
      </trkpt>
      <trkpt lat="45.44747" lon="5.92082">
        <ele>1914.55</ele>
        <time>2022-06-16T11:35:44.000Z</time>
      </trkpt>
      <trkpt lat="45.44747" lon="5.92108">
        <ele>1907.64</ele>
        <time>2022-06-16T11:36:08.000Z</time>
      </trkpt>
      <trkpt lat="45.44749" lon="5.92134">
        <ele>1906.24</ele>
        <time>2022-06-16T11:36:29.000Z</time>
      </trkpt>
      <trkpt lat="45.44756" lon="5.92159">
        <ele>1908.06</ele>
        <time>2022-06-16T11:36:51.000Z</time>
      </trkpt>
      <trkpt lat="45.44773" lon="5.92171">
        <ele>1905.05</ele>
        <time>2022-06-16T11:37:11.000Z</time>
      </trkpt>
      <trkpt lat="45.44783" lon="5.92194">
        <ele>1904.07</ele>
        <time>2022-06-16T11:37:36.000Z</time>
      </trkpt>
      <trkpt lat="45.44799" lon="5.92207">
        <ele>1899.66</ele>
        <time>2022-06-16T11:38:02.000Z</time>
      </trkpt>
      <trkpt lat="45.44815" lon="5.9222">
        <ele>1899.95</ele>
        <time>2022-06-16T11:38:24.000Z</time>
      </trkpt>
      <trkpt lat="45.44825" lon="5.92243">
        <ele>1899.28</ele>
        <time>2022-06-16T11:38:44.000Z</time>
      </trkpt>
      <trkpt lat="45.44841" lon="5.9223">
        <ele>1893.89</ele>
        <time>2022-06-16T11:39:54.000Z</time>
      </trkpt>
      <trkpt lat="45.44857" lon="5.92243">
        <ele>1892.77</ele>
        <time>2022-06-16T11:40:26.000Z</time>
      </trkpt>
      <trkpt lat="45.4487" lon="5.92261">
        <ele>1891.57</ele>
        <time>2022-06-16T11:40:47.000Z</time>
      </trkpt>
      <trkpt lat="45.44886" lon="5.92272">
        <ele>1891.16</ele>
        <time>2022-06-16T11:41:10.000Z</time>
      </trkpt>
      <trkpt lat="45.44897" lon="5.92294">
        <ele>1889.72</ele>
        <time>2022-06-16T11:41:45.000Z</time>
      </trkpt>
      <trkpt lat="45.44912" lon="5.92307">
        <ele>1883.16</ele>
        <time>2022-06-16T11:42:13.000Z</time>
      </trkpt>
      <trkpt lat="45.44923" lon="5.92329">
        <ele>1880.16</ele>
        <time>2022-06-16T11:42:41.000Z</time>
      </trkpt>
      <trkpt lat="45.44936" lon="5.92348">
        <ele>1881.19</ele>
        <time>2022-06-16T11:43:38.000Z</time>
      </trkpt>
      <trkpt lat="45.44918" lon="5.92336">
        <ele>1874.5</ele>
        <time>2022-06-16T11:44:27.000Z</time>
      </trkpt>
      <trkpt lat="45.44926" lon="5.9236">
        <ele>1877.43</ele>
        <time>2022-06-16T11:44:42.000Z</time>
      </trkpt>
      <trkpt lat="45.44917" lon="5.92384">
        <ele>1878.01</ele>
        <time>2022-06-16T11:45:36.000Z</time>
      </trkpt>
      <trkpt lat="45.44916" lon="5.9241">
        <ele>1872.78</ele>
        <time>2022-06-16T11:46:16.000Z</time>
      </trkpt>
      <trkpt lat="45.4493" lon="5.92429">
        <ele>1871.06</ele>
        <time>2022-06-16T11:46:49.000Z</time>
      </trkpt>
      <trkpt lat="45.44944" lon="5.92446">
        <ele>1863.85</ele>
        <time>2022-06-16T11:47:23.000Z</time>
      </trkpt>
      <trkpt lat="45.4494" lon="5.92472">
        <ele>1865.56</ele>
        <time>2022-06-16T11:47:53.000Z</time>
      </trkpt>
      <trkpt lat="45.44949" lon="5.92494">
        <ele>1856.64</ele>
        <time>2022-06-16T11:48:33.000Z</time>
      </trkpt>
      <trkpt lat="45.44961" lon="5.92514">
        <ele>1854.33</ele>
        <time>2022-06-16T11:49:02.000Z</time>
      </trkpt>
      <trkpt lat="45.44976" lon="5.92529">
        <ele>1849.94</ele>
        <time>2022-06-16T11:49:36.000Z</time>
      </trkpt>
      <trkpt lat="45.44983" lon="5.92552">
        <ele>1846.26</ele>
        <time>2022-06-16T11:50:44.000Z</time>
      </trkpt>
      <trkpt lat="45.44992" lon="5.92576">
        <ele>1846.28</ele>
        <time>2022-06-16T11:51:10.000Z</time>
      </trkpt>
      <trkpt lat="45.44998" lon="5.92601">
        <ele>1845.78</ele>
        <time>2022-06-16T11:51:32.000Z</time>
      </trkpt>
      <trkpt lat="45.45005" lon="5.92626">
        <ele>1842.79</ele>
        <time>2022-06-16T11:51:54.000Z</time>
      </trkpt>
      <trkpt lat="45.45017" lon="5.92645">
        <ele>1842.03</ele>
        <time>2022-06-16T11:52:17.000Z</time>
      </trkpt>
      <trkpt lat="45.45032" lon="5.92662">
        <ele>1836.15</ele>
        <time>2022-06-16T11:53:01.000Z</time>
      </trkpt>
      <trkpt lat="45.45048" lon="5.92674">
        <ele>1833</ele>
        <time>2022-06-16T11:54:51.000Z</time>
      </trkpt>
      <trkpt lat="45.45065" lon="5.92665">
        <ele>1828.59</ele>
        <time>2022-06-16T11:55:35.000Z</time>
      </trkpt>
      <trkpt lat="45.45076" lon="5.92644">
        <ele>1818.01</ele>
        <time>2022-06-16T11:56:02.000Z</time>
      </trkpt>
      <trkpt lat="45.4509" lon="5.92624">
        <ele>1815.45</ele>
        <time>2022-06-16T11:56:29.000Z</time>
      </trkpt>
      <trkpt lat="45.45109" lon="5.92625">
        <ele>1811.01</ele>
        <time>2022-06-16T11:57:09.000Z</time>
      </trkpt>
      <trkpt lat="45.45125" lon="5.92637">
        <ele>1809.97</ele>
        <time>2022-06-16T11:57:31.000Z</time>
      </trkpt>
      <trkpt lat="45.45143" lon="5.92642">
        <ele>1802.46</ele>
        <time>2022-06-16T11:58:02.000Z</time>
      </trkpt>
      <trkpt lat="45.45156" lon="5.9266">
        <ele>1797.92</ele>
        <time>2022-06-16T11:59:14.000Z</time>
      </trkpt>
      <trkpt lat="45.45156" lon="5.92687">
        <ele>1792.51</ele>
        <time>2022-06-16T12:00:50.000Z</time>
      </trkpt>
      <trkpt lat="45.4517" lon="5.92705">
        <ele>1791.08</ele>
        <time>2022-06-16T12:01:16.000Z</time>
      </trkpt>
      <trkpt lat="45.45171" lon="5.92731">
        <ele>1786.83</ele>
        <time>2022-06-16T12:01:41.000Z</time>
      </trkpt>
      <trkpt lat="45.45171" lon="5.92757">
        <ele>1787.44</ele>
        <time>2022-06-16T12:02:13.000Z</time>
      </trkpt>
      <trkpt lat="45.45178" lon="5.92781">
        <ele>1780.93</ele>
        <time>2022-06-16T12:02:42.000Z</time>
      </trkpt>
      <trkpt lat="45.45181" lon="5.92807">
        <ele>1778.76</ele>
        <time>2022-06-16T12:03:00.000Z</time>
      </trkpt>
      <trkpt lat="45.45186" lon="5.92832">
        <ele>1780.52</ele>
        <time>2022-06-16T12:03:19.000Z</time>
      </trkpt>
      <trkpt lat="45.45175" lon="5.92854">
        <ele>1778.79</ele>
        <time>2022-06-16T12:03:41.000Z</time>
      </trkpt>
      <trkpt lat="45.45168" lon="5.92879">
        <ele>1780.59</ele>
        <time>2022-06-16T12:04:05.000Z</time>
      </trkpt>
      <trkpt lat="45.45151" lon="5.92888">
        <ele>1778.02</ele>
        <time>2022-06-16T12:04:26.000Z</time>
      </trkpt>
      <trkpt lat="45.45136" lon="5.92902">
        <ele>1774.16</ele>
        <time>2022-06-16T12:04:46.000Z</time>
      </trkpt>
      <trkpt lat="45.45123" lon="5.9292">
        <ele>1775.61</ele>
        <time>2022-06-16T12:05:02.000Z</time>
      </trkpt>
      <trkpt lat="45.4511" lon="5.9294">
        <ele>1777.13</ele>
        <time>2022-06-16T12:05:37.000Z</time>
      </trkpt>
      <trkpt lat="45.45098" lon="5.92959">
        <ele>1776.82</ele>
        <time>2022-06-16T12:05:58.000Z</time>
      </trkpt>
      <trkpt lat="45.45082" lon="5.92973">
        <ele>1777.53</ele>
        <time>2022-06-16T12:06:26.000Z</time>
      </trkpt>
      <trkpt lat="45.45064" lon="5.92978">
        <ele>1777.42</ele>
        <time>2022-06-16T12:06:52.000Z</time>
      </trkpt>
      <trkpt lat="45.45045" lon="5.92973">
        <ele>1776.96</ele>
        <time>2022-06-16T12:07:17.000Z</time>
      </trkpt>
      <trkpt lat="45.45029" lon="5.92963">
        <ele>1780.62</ele>
        <time>2022-06-16T12:07:40.000Z</time>
      </trkpt>
      <trkpt lat="45.4501" lon="5.92962">
        <ele>1778.35</ele>
        <time>2022-06-16T12:08:17.000Z</time>
      </trkpt>
      <trkpt lat="45.44992" lon="5.9296">
        <ele>1777.36</ele>
        <time>2022-06-16T12:08:41.000Z</time>
      </trkpt>
      <trkpt lat="45.44974" lon="5.92956">
        <ele>1779.61</ele>
        <time>2022-06-16T12:09:01.000Z</time>
      </trkpt>
      <trkpt lat="45.44956" lon="5.92959">
        <ele>1774.67</ele>
        <time>2022-06-16T12:09:33.000Z</time>
      </trkpt>
      <trkpt lat="45.44938" lon="5.92966">
        <ele>1777.65</ele>
        <time>2022-06-16T12:09:58.000Z</time>
      </trkpt>
      <trkpt lat="45.44934" lon="5.92991">
        <ele>1767.15</ele>
        <time>2022-06-16T12:10:41.000Z</time>
      </trkpt>
      <trkpt lat="45.44948" lon="5.93008">
        <ele>1766.76</ele>
        <time>2022-06-16T12:11:10.000Z</time>
      </trkpt>
      <trkpt lat="45.44952" lon="5.93034">
        <ele>1758.51</ele>
        <time>2022-06-16T12:11:55.000Z</time>
      </trkpt>
      <trkpt lat="45.44954" lon="5.9306">
        <ele>1750.88</ele>
        <time>2022-06-16T12:12:29.000Z</time>
      </trkpt>
      <trkpt lat="45.44944" lon="5.93082">
        <ele>1738.87</ele>
        <time>2022-06-16T12:13:20.000Z</time>
      </trkpt>
      <trkpt lat="45.4493" lon="5.93098">
        <ele>1718.36</ele>
        <time>2022-06-16T12:14:36.000Z</time>
      </trkpt>
      <trkpt lat="45.44944" lon="5.93114">
        <ele>1714.8</ele>
        <time>2022-06-16T12:15:02.000Z</time>
      </trkpt>
      <trkpt lat="45.44961" lon="5.93127">
        <ele>1704.66</ele>
        <time>2022-06-16T12:15:24.000Z</time>
      </trkpt>
      <trkpt lat="45.44976" lon="5.93141">
        <ele>1705.35</ele>
        <time>2022-06-16T12:15:51.000Z</time>
      </trkpt>
      <trkpt lat="45.44989" lon="5.93161">
        <ele>1700.97</ele>
        <time>2022-06-16T12:16:16.000Z</time>
      </trkpt>
      <trkpt lat="45.44996" lon="5.93185">
        <ele>1694.81</ele>
        <time>2022-06-16T12:16:45.000Z</time>
      </trkpt>
      <trkpt lat="45.45005" lon="5.93208">
        <ele>1694.72</ele>
        <time>2022-06-16T12:17:06.000Z</time>
      </trkpt>
      <trkpt lat="45.44987" lon="5.93206">
        <ele>1682.9</ele>
        <time>2022-06-16T12:18:21.000Z</time>
      </trkpt>
      <trkpt lat="45.44987" lon="5.93231">
        <ele>1680.92</ele>
        <time>2022-06-16T12:19:20.000Z</time>
      </trkpt>
      <trkpt lat="45.44986" lon="5.93257">
        <ele>1666.25</ele>
        <time>2022-06-16T12:29:40.000Z</time>
      </trkpt>
      <trkpt lat="45.4497" lon="5.93245">
        <ele>1651.26</ele>
        <time>2022-06-16T12:31:36.000Z</time>
      </trkpt>
      <trkpt lat="45.44961" lon="5.93222">
        <ele>1649.43</ele>
        <time>2022-06-16T12:32:15.000Z</time>
      </trkpt>
      <trkpt lat="45.44944" lon="5.93209">
        <ele>1643.88</ele>
        <time>2022-06-16T12:36:19.000Z</time>
      </trkpt>
      <trkpt lat="45.44932" lon="5.9323">
        <ele>1643.75</ele>
        <time>2022-06-16T12:40:18.000Z</time>
      </trkpt>
      <trkpt lat="45.44949" lon="5.93235">
        <ele>1629.93</ele>
        <time>2022-06-16T12:41:46.000Z</time>
      </trkpt>
      <trkpt lat="45.4494" lon="5.93213">
        <ele>1621.49</ele>
        <time>2022-06-16T12:42:30.000Z</time>
      </trkpt>
      <trkpt lat="45.44923" lon="5.93202">
        <ele>1627.82</ele>
        <time>2022-06-16T12:42:52.000Z</time>
      </trkpt>
      <trkpt lat="45.4491" lon="5.93182">
        <ele>1623.21</ele>
        <time>2022-06-16T12:43:26.000Z</time>
      </trkpt>
      <trkpt lat="45.4491" lon="5.93156">
        <ele>1617.01</ele>
        <time>2022-06-16T12:43:40.000Z</time>
      </trkpt>
      <trkpt lat="45.44896" lon="5.93139">
        <ele>1618.91</ele>
        <time>2022-06-16T12:44:06.000Z</time>
      </trkpt>
      <trkpt lat="45.44889" lon="5.93115">
        <ele>1620.98</ele>
        <time>2022-06-16T12:44:26.000Z</time>
      </trkpt>
      <trkpt lat="45.44881" lon="5.93091">
        <ele>1625.45</ele>
        <time>2022-06-16T12:44:45.000Z</time>
      </trkpt>
      <trkpt lat="45.44875" lon="5.93065">
        <ele>1629.98</ele>
        <time>2022-06-16T12:44:59.000Z</time>
      </trkpt>
      <trkpt lat="45.44864" lon="5.93043">
        <ele>1623.21</ele>
        <time>2022-06-16T12:45:28.000Z</time>
      </trkpt>
      <trkpt lat="45.44847" lon="5.93036">
        <ele>1626.54</ele>
        <time>2022-06-16T12:46:49.000Z</time>
      </trkpt>
      <trkpt lat="45.44833" lon="5.93019">
        <ele>1618.25</ele>
        <time>2022-06-16T12:47:28.000Z</time>
      </trkpt>
      <trkpt lat="45.44828" lon="5.93043">
        <ele>1621.36</ele>
        <time>2022-06-16T12:48:49.000Z</time>
      </trkpt>
      <trkpt lat="45.4484" lon="5.93065">
        <ele>1608.74</ele>
        <time>2022-06-16T12:49:26.000Z</time>
      </trkpt>
      <trkpt lat="45.44824" lon="5.93052">
        <ele>1604.17</ele>
        <time>2022-06-16T12:50:06.000Z</time>
      </trkpt>
      <trkpt lat="45.44813" lon="5.93031">
        <ele>1592.82</ele>
        <time>2022-06-16T12:51:06.000Z</time>
      </trkpt>
      <trkpt lat="45.44799" lon="5.93015">
        <ele>1575.69</ele>
        <time>2022-06-16T12:52:40.000Z</time>
      </trkpt>
      <trkpt lat="45.44784" lon="5.92998">
        <ele>1578.19</ele>
        <time>2022-06-16T12:52:54.000Z</time>
      </trkpt>
      <trkpt lat="45.4477" lon="5.92981">
        <ele>1578.07</ele>
        <time>2022-06-16T12:53:14.000Z</time>
      </trkpt>
      <trkpt lat="45.44757" lon="5.92963">
        <ele>1581.24</ele>
        <time>2022-06-16T12:53:30.000Z</time>
      </trkpt>
      <trkpt lat="45.44744" lon="5.92945">
        <ele>1580.47</ele>
        <time>2022-06-16T12:53:46.000Z</time>
      </trkpt>
      <trkpt lat="45.4473" lon="5.92928">
        <ele>1585.66</ele>
        <time>2022-06-16T12:54:04.000Z</time>
      </trkpt>
      <trkpt lat="45.44716" lon="5.92911">
        <ele>1587.43</ele>
        <time>2022-06-16T12:54:26.000Z</time>
      </trkpt>
      <trkpt lat="45.44702" lon="5.92892">
        <ele>1583.41</ele>
        <time>2022-06-16T12:54:42.000Z</time>
      </trkpt>
      <trkpt lat="45.44688" lon="5.92876">
        <ele>1585.23</ele>
        <time>2022-06-16T12:55:02.000Z</time>
      </trkpt>
      <trkpt lat="45.44671" lon="5.92865">
        <ele>1582.85</ele>
        <time>2022-06-16T12:55:24.000Z</time>
      </trkpt>
      <trkpt lat="45.44654" lon="5.92856">
        <ele>1579.68</ele>
        <time>2022-06-16T12:55:44.000Z</time>
      </trkpt>
      <trkpt lat="45.44668" lon="5.92873">
        <ele>1577.38</ele>
        <time>2022-06-16T13:10:07.000Z</time>
      </trkpt>
      <trkpt lat="45.44651" lon="5.92865">
        <ele>1582</ele>
        <time>2022-06-16T13:14:06.000Z</time>
      </trkpt>
      <trkpt lat="45.44632" lon="5.9286">
        <ele>1576.37</ele>
        <time>2022-06-16T13:14:26.000Z</time>
      </trkpt>
      <trkpt lat="45.44616" lon="5.92848">
        <ele>1573.91</ele>
        <time>2022-06-16T13:14:49.000Z</time>
      </trkpt>
      <trkpt lat="45.44598" lon="5.92843">
        <ele>1568.33</ele>
        <time>2022-06-16T13:15:11.000Z</time>
      </trkpt>
      <trkpt lat="45.44583" lon="5.92828">
        <ele>1561.38</ele>
        <time>2022-06-16T13:15:29.000Z</time>
      </trkpt>
      <trkpt lat="45.44566" lon="5.92818">
        <ele>1558.14</ele>
        <time>2022-06-16T13:15:46.000Z</time>
      </trkpt>
      <trkpt lat="45.44549" lon="5.92809">
        <ele>1556.26</ele>
        <time>2022-06-16T13:16:04.000Z</time>
      </trkpt>
      <trkpt lat="45.44533" lon="5.92797">
        <ele>1551.32</ele>
        <time>2022-06-16T13:16:24.000Z</time>
      </trkpt>
      <trkpt lat="45.44516" lon="5.92784">
        <ele>1553.94</ele>
        <time>2022-06-16T13:16:45.000Z</time>
      </trkpt>
      <trkpt lat="45.44499" lon="5.92774">
        <ele>1549.12</ele>
        <time>2022-06-16T13:17:04.000Z</time>
      </trkpt>
      <trkpt lat="45.44485" lon="5.92758">
        <ele>1546.51</ele>
        <time>2022-06-16T13:17:23.000Z</time>
      </trkpt>
      <trkpt lat="45.44473" lon="5.92738">
        <ele>1544.38</ele>
        <time>2022-06-16T13:17:39.000Z</time>
      </trkpt>
      <trkpt lat="45.44461" lon="5.92717">
        <ele>1543.61</ele>
        <time>2022-06-16T13:17:56.000Z</time>
      </trkpt>
      <trkpt lat="45.44448" lon="5.92699">
        <ele>1544.95</ele>
        <time>2022-06-16T13:18:11.000Z</time>
      </trkpt>
      <trkpt lat="45.44434" lon="5.92681">
        <ele>1545.2</ele>
        <time>2022-06-16T13:18:26.000Z</time>
      </trkpt>
      <trkpt lat="45.4442" lon="5.92664">
        <ele>1544.63</ele>
        <time>2022-06-16T13:18:39.000Z</time>
      </trkpt>
      <trkpt lat="45.44407" lon="5.92646">
        <ele>1542.42</ele>
        <time>2022-06-16T13:18:53.000Z</time>
      </trkpt>
      <trkpt lat="45.44393" lon="5.92627">
        <ele>1541.74</ele>
        <time>2022-06-16T13:19:08.000Z</time>
      </trkpt>
      <trkpt lat="45.44381" lon="5.92607">
        <ele>1540.57</ele>
        <time>2022-06-16T13:19:23.000Z</time>
      </trkpt>
      <trkpt lat="45.44369" lon="5.92585">
        <ele>1542.06</ele>
        <time>2022-06-16T13:19:37.000Z</time>
      </trkpt>
      <trkpt lat="45.44358" lon="5.92563">
        <ele>1538.94</ele>
        <time>2022-06-16T13:19:52.000Z</time>
      </trkpt>
      <trkpt lat="45.44348" lon="5.9254">
        <ele>1538.99</ele>
        <time>2022-06-16T13:20:08.000Z</time>
      </trkpt>
      <trkpt lat="45.44336" lon="5.92519">
        <ele>1540.54</ele>
        <time>2022-06-16T13:20:21.000Z</time>
      </trkpt>
      <trkpt lat="45.44325" lon="5.92498">
        <ele>1544.27</ele>
        <time>2022-06-16T13:20:35.000Z</time>
      </trkpt>
      <trkpt lat="45.44313" lon="5.92478">
        <ele>1546.71</ele>
        <time>2022-06-16T13:20:46.000Z</time>
      </trkpt>
      <trkpt lat="45.44303" lon="5.92456">
        <ele>1546.71</ele>
        <time>2022-06-16T13:21:02.000Z</time>
      </trkpt>
      <trkpt lat="45.4429" lon="5.92438">
        <ele>1539.49</ele>
        <time>2022-06-16T13:21:18.000Z</time>
      </trkpt>
      <trkpt lat="45.44275" lon="5.92423">
        <ele>1541.7</ele>
        <time>2022-06-16T13:21:37.000Z</time>
      </trkpt>
      <trkpt lat="45.44266" lon="5.924">
        <ele>1540.14</ele>
        <time>2022-06-16T13:23:59.000Z</time>
      </trkpt>
      <trkpt lat="45.44258" lon="5.92375">
        <ele>1542.32</ele>
        <time>2022-06-16T13:24:35.000Z</time>
      </trkpt>
      <trkpt lat="45.44247" lon="5.92354">
        <ele>1544.14</ele>
        <time>2022-06-16T13:24:51.000Z</time>
      </trkpt>
      <trkpt lat="45.4424" lon="5.9233">
        <ele>1543.4</ele>
        <time>2022-06-16T13:25:09.000Z</time>
      </trkpt>
      <trkpt lat="45.44235" lon="5.92304">
        <ele>1539.93</ele>
        <time>2022-06-16T13:25:29.000Z</time>
      </trkpt>
      <trkpt lat="45.44226" lon="5.92281">
        <ele>1537.05</ele>
        <time>2022-06-16T13:25:45.000Z</time>
      </trkpt>
      <trkpt lat="45.44212" lon="5.92264">
        <ele>1535.6</ele>
        <time>2022-06-16T13:25:57.000Z</time>
      </trkpt>
      <trkpt lat="45.44211" lon="5.92238">
        <ele>1538.43</ele>
        <time>2022-06-16T13:26:19.000Z</time>
      </trkpt>
      <trkpt lat="45.44207" lon="5.92212">
        <ele>1539.67</ele>
        <time>2022-06-16T13:26:42.000Z</time>
      </trkpt>
      <trkpt lat="45.44206" lon="5.92186">
        <ele>1538.56</ele>
        <time>2022-06-16T13:27:04.000Z</time>
      </trkpt>
      <trkpt lat="45.44196" lon="5.92163">
        <ele>1540.59</ele>
        <time>2022-06-16T13:27:20.000Z</time>
      </trkpt>
      <trkpt lat="45.44188" lon="5.92139">
        <ele>1540.41</ele>
        <time>2022-06-16T13:27:37.000Z</time>
      </trkpt>
      <trkpt lat="45.44184" lon="5.92112">
        <ele>1542.02</ele>
        <time>2022-06-16T13:27:55.000Z</time>
      </trkpt>
      <trkpt lat="45.44177" lon="5.92087">
        <ele>1544.12</ele>
        <time>2022-06-16T13:28:08.000Z</time>
      </trkpt>
      <trkpt lat="45.44175" lon="5.92061">
        <ele>1544.57</ele>
        <time>2022-06-16T13:28:23.000Z</time>
      </trkpt>
      <trkpt lat="45.44178" lon="5.92035">
        <ele>1543.34</ele>
        <time>2022-06-16T13:28:39.000Z</time>
      </trkpt>
      <trkpt lat="45.44178" lon="5.92008">
        <ele>1541.22</ele>
        <time>2022-06-16T13:28:55.000Z</time>
      </trkpt>
      <trkpt lat="45.4418" lon="5.91983">
        <ele>1536.07</ele>
        <time>2022-06-16T13:29:10.000Z</time>
      </trkpt>
      <trkpt lat="45.4418" lon="5.91956">
        <ele>1538.24</ele>
        <time>2022-06-16T13:29:23.000Z</time>
      </trkpt>
      <trkpt lat="45.4418" lon="5.91929">
        <ele>1537.16</ele>
        <time>2022-06-16T13:29:38.000Z</time>
      </trkpt>
      <trkpt lat="45.44178" lon="5.91904">
        <ele>1536.12</ele>
        <time>2022-06-16T13:29:51.000Z</time>
      </trkpt>
      <trkpt lat="45.44185" lon="5.9188">
        <ele>1532.3</ele>
        <time>2022-06-16T13:30:08.000Z</time>
      </trkpt>
      <trkpt lat="45.44199" lon="5.91863">
        <ele>1532.53</ele>
        <time>2022-06-16T13:30:28.000Z</time>
      </trkpt>
      <trkpt lat="45.44209" lon="5.91839">
        <ele>1533.61</ele>
        <time>2022-06-16T13:30:44.000Z</time>
      </trkpt>
      <trkpt lat="45.44227" lon="5.91832">
        <ele>1531.16</ele>
        <time>2022-06-16T13:31:08.000Z</time>
      </trkpt>
      <trkpt lat="45.44224" lon="5.91806">
        <ele>1504.86</ele>
        <time>2022-06-16T13:32:08.000Z</time>
      </trkpt>
      <trkpt lat="45.44232" lon="5.91782">
        <ele>1498.56</ele>
        <time>2022-06-16T13:33:01.000Z</time>
      </trkpt>
      <trkpt lat="45.44248" lon="5.91795">
        <ele>1479.51</ele>
        <time>2022-06-16T13:33:48.000Z</time>
      </trkpt>
      <trkpt lat="45.44264" lon="5.91806">
        <ele>1478.31</ele>
        <time>2022-06-16T13:34:04.000Z</time>
      </trkpt>
      <trkpt lat="45.44275" lon="5.91827">
        <ele>1475.51</ele>
        <time>2022-06-16T13:34:24.000Z</time>
      </trkpt>
      <trkpt lat="45.44289" lon="5.91845">
        <ele>1471.37</ele>
        <time>2022-06-16T13:34:48.000Z</time>
      </trkpt>
      <trkpt lat="45.44301" lon="5.91864">
        <ele>1464.07</ele>
        <time>2022-06-16T13:35:11.000Z</time>
      </trkpt>
      <trkpt lat="45.44306" lon="5.91839">
        <ele>1458.61</ele>
        <time>2022-06-16T13:35:51.000Z</time>
      </trkpt>
      <trkpt lat="45.44316" lon="5.91816">
        <ele>1454.53</ele>
        <time>2022-06-16T13:36:10.000Z</time>
      </trkpt>
      <trkpt lat="45.44325" lon="5.91794">
        <ele>1456.43</ele>
        <time>2022-06-16T13:36:30.000Z</time>
      </trkpt>
      <trkpt lat="45.44334" lon="5.9177">
        <ele>1450.39</ele>
        <time>2022-06-16T13:36:55.000Z</time>
      </trkpt>
      <trkpt lat="45.44334" lon="5.91744">
        <ele>1421.47</ele>
        <time>2022-06-16T13:37:48.000Z</time>
      </trkpt>
      <trkpt lat="45.44317" lon="5.91749">
        <ele>1419.27</ele>
        <time>2022-06-16T13:38:04.000Z</time>
      </trkpt>
      <trkpt lat="45.44297" lon="5.91751">
        <ele>1415.16</ele>
        <time>2022-06-16T13:38:47.000Z</time>
      </trkpt>
      <trkpt lat="45.44302" lon="5.91726">
        <ele>1407</ele>
        <time>2022-06-16T13:39:12.000Z</time>
      </trkpt>
      <trkpt lat="45.44314" lon="5.91704">
        <ele>1396.09</ele>
        <time>2022-06-16T13:39:32.000Z</time>
      </trkpt>
      <trkpt lat="45.44328" lon="5.91687">
        <ele>1393.54</ele>
        <time>2022-06-16T13:39:48.000Z</time>
      </trkpt>
      <trkpt lat="45.4431" lon="5.91682">
        <ele>1391.22</ele>
        <time>2022-06-16T13:40:13.000Z</time>
      </trkpt>
      <trkpt lat="45.44292" lon="5.91686">
        <ele>1382.84</ele>
        <time>2022-06-16T13:40:33.000Z</time>
      </trkpt>
      <trkpt lat="45.44293" lon="5.9166">
        <ele>1370.81</ele>
        <time>2022-06-16T13:41:24.000Z</time>
      </trkpt>
      <trkpt lat="45.44308" lon="5.91645">
        <ele>1369.52</ele>
        <time>2022-06-16T13:42:54.000Z</time>
      </trkpt>
      <trkpt lat="45.44296" lon="5.91624">
        <ele>1375.16</ele>
        <time>2022-06-16T13:43:33.000Z</time>
      </trkpt>
      <trkpt lat="45.44279" lon="5.91615">
        <ele>1359.41</ele>
        <time>2022-06-16T13:44:02.000Z</time>
      </trkpt>
      <trkpt lat="45.44263" lon="5.91629">
        <ele>1355.84</ele>
        <time>2022-06-16T13:44:20.000Z</time>
      </trkpt>
      <trkpt lat="45.44244" lon="5.91631">
        <ele>1364.49</ele>
        <time>2022-06-16T13:44:36.000Z</time>
      </trkpt>
      <trkpt lat="45.44226" lon="5.91628">
        <ele>1364.72</ele>
        <time>2022-06-16T13:44:49.000Z</time>
      </trkpt>
      <trkpt lat="45.44236" lon="5.91607">
        <ele>1359.37</ele>
        <time>2022-06-16T13:45:06.000Z</time>
      </trkpt>
      <trkpt lat="45.4425" lon="5.91588">
        <ele>1348.12</ele>
        <time>2022-06-16T13:45:26.000Z</time>
      </trkpt>
      <trkpt lat="45.44264" lon="5.91571">
        <ele>1331.27</ele>
        <time>2022-06-16T13:45:49.000Z</time>
      </trkpt>
      <trkpt lat="45.4428" lon="5.91557">
        <ele>1319.95</ele>
        <time>2022-06-16T13:46:12.000Z</time>
      </trkpt>
      <trkpt lat="45.44292" lon="5.91537">
        <ele>1314.91</ele>
        <time>2022-06-16T13:46:33.000Z</time>
      </trkpt>
      <trkpt lat="45.44302" lon="5.91514">
        <ele>1311.58</ele>
        <time>2022-06-16T13:46:52.000Z</time>
      </trkpt>
      <trkpt lat="45.44312" lon="5.91493">
        <ele>1304.99</ele>
        <time>2022-06-16T13:47:14.000Z</time>
      </trkpt>
      <trkpt lat="45.44322" lon="5.91471">
        <ele>1293.08</ele>
        <time>2022-06-16T13:47:34.000Z</time>
      </trkpt>
      <trkpt lat="45.4433" lon="5.91446">
        <ele>1289.49</ele>
        <time>2022-06-16T13:47:53.000Z</time>
      </trkpt>
      <trkpt lat="45.44325" lon="5.91421">
        <ele>1279.36</ele>
        <time>2022-06-16T13:48:15.000Z</time>
      </trkpt>
      <trkpt lat="45.44315" lon="5.91399">
        <ele>1268.66</ele>
        <time>2022-06-16T13:48:36.000Z</time>
      </trkpt>
      <trkpt lat="45.44324" lon="5.91376">
        <ele>1262.23</ele>
        <time>2022-06-16T13:48:52.000Z</time>
      </trkpt>
      <trkpt lat="45.44332" lon="5.91353">
        <ele>1256.36</ele>
        <time>2022-06-16T13:49:11.000Z</time>
      </trkpt>
      <trkpt lat="45.44346" lon="5.91334">
        <ele>1249.32</ele>
        <time>2022-06-16T13:49:28.000Z</time>
      </trkpt>
      <trkpt lat="45.44361" lon="5.91317">
        <ele>1236.55</ele>
        <time>2022-06-16T13:49:43.000Z</time>
      </trkpt>
      <trkpt lat="45.44375" lon="5.913">
        <ele>1235.39</ele>
        <time>2022-06-16T13:49:58.000Z</time>
      </trkpt>
      <trkpt lat="45.44391" lon="5.91285">
        <ele>1227.3</ele>
        <time>2022-06-16T13:50:14.000Z</time>
      </trkpt>
      <trkpt lat="45.4438" lon="5.91264">
        <ele>1229.58</ele>
        <time>2022-06-16T13:51:10.000Z</time>
      </trkpt>
      <trkpt lat="45.44362" lon="5.91262">
        <ele>1230.57</ele>
        <time>2022-06-16T13:51:26.000Z</time>
      </trkpt>
      <trkpt lat="45.44344" lon="5.91255">
        <ele>1226.99</ele>
        <time>2022-06-16T13:51:44.000Z</time>
      </trkpt>
      <trkpt lat="45.44326" lon="5.91252">
        <ele>1228.49</ele>
        <time>2022-06-16T13:52:14.000Z</time>
      </trkpt>
      <trkpt lat="45.44308" lon="5.9126">
        <ele>1218.37</ele>
        <time>2022-06-16T13:52:29.000Z</time>
      </trkpt>
      <trkpt lat="45.4429" lon="5.9126">
        <ele>1221.93</ele>
        <time>2022-06-16T13:52:46.000Z</time>
      </trkpt>
      <trkpt lat="45.44272" lon="5.91266">
        <ele>1217.69</ele>
        <time>2022-06-16T13:53:04.000Z</time>
      </trkpt>
      <trkpt lat="45.44255" lon="5.91275">
        <ele>1216.5</ele>
        <time>2022-06-16T13:53:19.000Z</time>
      </trkpt>
      <trkpt lat="45.44236" lon="5.91275">
        <ele>1212.29</ele>
        <time>2022-06-16T13:53:35.000Z</time>
      </trkpt>
      <trkpt lat="45.44218" lon="5.91275">
        <ele>1212.22</ele>
        <time>2022-06-16T13:53:50.000Z</time>
      </trkpt>
      <trkpt lat="45.44202" lon="5.91287">
        <ele>1211.88</ele>
        <time>2022-06-16T13:54:05.000Z</time>
      </trkpt>
      <trkpt lat="45.44186" lon="5.913">
        <ele>1200.7</ele>
        <time>2022-06-16T13:54:21.000Z</time>
      </trkpt>
      <trkpt lat="45.44169" lon="5.91313">
        <ele>1202.79</ele>
        <time>2022-06-16T13:54:36.000Z</time>
      </trkpt>
      <trkpt lat="45.44151" lon="5.9132">
        <ele>1201.74</ele>
        <time>2022-06-16T13:54:58.000Z</time>
      </trkpt>
      <trkpt lat="45.44133" lon="5.91313">
        <ele>1203.95</ele>
        <time>2022-06-16T13:55:14.000Z</time>
      </trkpt>
      <trkpt lat="45.44115" lon="5.91309">
        <ele>1204.96</ele>
        <time>2022-06-16T13:55:31.000Z</time>
      </trkpt>
      <trkpt lat="45.44097" lon="5.91312">
        <ele>1205.54</ele>
        <time>2022-06-16T13:55:47.000Z</time>
      </trkpt>
      <trkpt lat="45.44078" lon="5.91306">
        <ele>1209.58</ele>
        <time>2022-06-16T13:56:03.000Z</time>
      </trkpt>
      <trkpt lat="45.44068" lon="5.91284">
        <ele>1200.99</ele>
        <time>2022-06-16T13:56:30.000Z</time>
      </trkpt>
      <trkpt lat="45.44051" lon="5.91273">
        <ele>1187.59</ele>
        <time>2022-06-16T13:56:57.000Z</time>
      </trkpt>
      <trkpt lat="45.44032" lon="5.91271">
        <ele>1191.67</ele>
        <time>2022-06-16T13:57:12.000Z</time>
      </trkpt>
      <trkpt lat="45.44015" lon="5.91259">
        <ele>1196.97</ele>
        <time>2022-06-16T13:57:30.000Z</time>
      </trkpt>
      <trkpt lat="45.44006" lon="5.91235">
        <ele>1188.71</ele>
        <time>2022-06-16T13:57:47.000Z</time>
      </trkpt>
      <trkpt lat="45.43994" lon="5.91216">
        <ele>1183.72</ele>
        <time>2022-06-16T13:58:09.000Z</time>
      </trkpt>
      <trkpt lat="45.43983" lon="5.91194">
        <ele>1175.09</ele>
        <time>2022-06-16T13:58:32.000Z</time>
      </trkpt>
      <trkpt lat="45.43982" lon="5.91168">
        <ele>1170.87</ele>
        <time>2022-06-16T13:58:51.000Z</time>
      </trkpt>
      <trkpt lat="45.43999" lon="5.91157">
        <ele>1166.42</ele>
        <time>2022-06-16T13:59:18.000Z</time>
      </trkpt>
      <trkpt lat="45.44018" lon="5.91156">
        <ele>1166.73</ele>
        <time>2022-06-16T13:59:32.000Z</time>
      </trkpt>
      <trkpt lat="45.4403" lon="5.91137">
        <ele>1159.07</ele>
        <time>2022-06-16T13:59:49.000Z</time>
      </trkpt>
      <trkpt lat="45.44037" lon="5.91113">
        <ele>1156.3</ele>
        <time>2022-06-16T14:00:08.000Z</time>
      </trkpt>
      <trkpt lat="45.44046" lon="5.9109">
        <ele>1155.47</ele>
        <time>2022-06-16T14:00:26.000Z</time>
      </trkpt>
      <trkpt lat="45.44039" lon="5.91066">
        <ele>1151.84</ele>
        <time>2022-06-16T14:00:43.000Z</time>
      </trkpt>
      <trkpt lat="45.44031" lon="5.91042">
        <ele>1153.6</ele>
        <time>2022-06-16T14:01:00.000Z</time>
      </trkpt>
      <trkpt lat="45.4403" lon="5.91016">
        <ele>1154.7</ele>
        <time>2022-06-16T14:01:15.000Z</time>
      </trkpt>
      <trkpt lat="45.44029" lon="5.9099">
        <ele>1154.83</ele>
        <time>2022-06-16T14:01:30.000Z</time>
      </trkpt>
      <trkpt lat="45.44023" lon="5.90966">
        <ele>1148.52</ele>
        <time>2022-06-16T14:03:11.000Z</time>
      </trkpt>
      <trkpt lat="45.44019" lon="5.90941">
        <ele>1142.29</ele>
        <time>2022-06-16T14:03:31.000Z</time>
      </trkpt>
      <trkpt lat="45.44037" lon="5.90932">
        <ele>1140.89</ele>
        <time>2022-06-16T14:03:52.000Z</time>
      </trkpt>
      <trkpt lat="45.44055" lon="5.90933">
        <ele>1146.81</ele>
        <time>2022-06-16T14:04:07.000Z</time>
      </trkpt>
      <trkpt lat="45.44069" lon="5.90915">
        <ele>1142.83</ele>
        <time>2022-06-16T14:04:24.000Z</time>
      </trkpt>
      <trkpt lat="45.44072" lon="5.90888">
        <ele>1142.66</ele>
        <time>2022-06-16T14:04:41.000Z</time>
      </trkpt>
      <trkpt lat="45.4408" lon="5.90865">
        <ele>1139.96</ele>
        <time>2022-06-16T14:04:59.000Z</time>
      </trkpt>
      <trkpt lat="45.44091" lon="5.90844">
        <ele>1137.89</ele>
        <time>2022-06-16T14:05:15.000Z</time>
      </trkpt>
      <trkpt lat="45.44094" lon="5.90818">
        <ele>1134.34</ele>
        <time>2022-06-16T14:05:31.000Z</time>
      </trkpt>
      <trkpt lat="45.44081" lon="5.90799">
        <ele>1133.3</ele>
        <time>2022-06-16T14:05:49.000Z</time>
      </trkpt>
      <trkpt lat="45.44068" lon="5.90779">
        <ele>1133.86</ele>
        <time>2022-06-16T14:06:04.000Z</time>
      </trkpt>
      <trkpt lat="45.44058" lon="5.90758">
        <ele>1139.06</ele>
        <time>2022-06-16T14:06:21.000Z</time>
      </trkpt>
      <trkpt lat="45.44058" lon="5.90732">
        <ele>1135.03</ele>
        <time>2022-06-16T14:06:37.000Z</time>
      </trkpt>
      <trkpt lat="45.44071" lon="5.90713">
        <ele>1133.83</ele>
        <time>2022-06-16T14:06:53.000Z</time>
      </trkpt>
      <trkpt lat="45.44075" lon="5.90687">
        <ele>1125.38</ele>
        <time>2022-06-16T14:07:11.000Z</time>
      </trkpt>
      <trkpt lat="45.44078" lon="5.90662">
        <ele>1117.93</ele>
        <time>2022-06-16T14:07:27.000Z</time>
      </trkpt>
      <trkpt lat="45.44084" lon="5.90637">
        <ele>1112.63</ele>
        <time>2022-06-16T14:07:44.000Z</time>
      </trkpt>
      <trkpt lat="45.44091" lon="5.90612">
        <ele>1114.83</ele>
        <time>2022-06-16T14:07:59.000Z</time>
      </trkpt>
      <trkpt lat="45.44102" lon="5.90591">
        <ele>1116.43</ele>
        <time>2022-06-16T14:08:17.000Z</time>
      </trkpt>
      <trkpt lat="45.4412" lon="5.90579">
        <ele>1117.02</ele>
        <time>2022-06-16T14:08:34.000Z</time>
      </trkpt>
      <trkpt lat="45.44137" lon="5.90572">
        <ele>1111.83</ele>
        <time>2022-06-16T14:08:51.000Z</time>
      </trkpt>
      <trkpt lat="45.44155" lon="5.90566">
        <ele>1100.94</ele>
        <time>2022-06-16T14:09:11.000Z</time>
      </trkpt>
      <trkpt lat="45.44174" lon="5.9056">
        <ele>1099.33</ele>
        <time>2022-06-16T14:09:27.000Z</time>
      </trkpt>
      <trkpt lat="45.44192" lon="5.90561">
        <ele>1097.02</ele>
        <time>2022-06-16T14:09:45.000Z</time>
      </trkpt>
      <trkpt lat="45.4421" lon="5.90567">
        <ele>1094.3</ele>
        <time>2022-06-16T14:10:03.000Z</time>
      </trkpt>
      <trkpt lat="45.44228" lon="5.90568">
        <ele>1093.35</ele>
        <time>2022-06-16T14:10:20.000Z</time>
      </trkpt>
      <trkpt lat="45.44246" lon="5.90565">
        <ele>1084.4</ele>
        <time>2022-06-16T14:10:50.000Z</time>
      </trkpt>
      <trkpt lat="45.44264" lon="5.90557">
        <ele>1092.88</ele>
        <time>2022-06-16T14:11:50.000Z</time>
      </trkpt>
      <trkpt lat="45.44281" lon="5.90549">
        <ele>1093.48</ele>
        <time>2022-06-16T14:12:09.000Z</time>
      </trkpt>
      <trkpt lat="45.44299" lon="5.90542">
        <ele>1094.05</ele>
        <time>2022-06-16T14:12:24.000Z</time>
      </trkpt>
      <trkpt lat="45.44316" lon="5.90532">
        <ele>1092.86</ele>
        <time>2022-06-16T14:12:40.000Z</time>
      </trkpt>
      <trkpt lat="45.44335" lon="5.90529">
        <ele>1089.84</ele>
        <time>2022-06-16T14:12:56.000Z</time>
      </trkpt>
      <trkpt lat="45.44352" lon="5.90517">
        <ele>1089.8</ele>
        <time>2022-06-16T14:13:09.000Z</time>
      </trkpt>
      <trkpt lat="45.44368" lon="5.90504">
        <ele>1091.69</ele>
        <time>2022-06-16T14:13:22.000Z</time>
      </trkpt>
      <trkpt lat="45.44384" lon="5.90492">
        <ele>1090.69</ele>
        <time>2022-06-16T14:13:37.000Z</time>
      </trkpt>
      <trkpt lat="45.44399" lon="5.90476">
        <ele>1086.88</ele>
        <time>2022-06-16T14:13:53.000Z</time>
      </trkpt>
      <trkpt lat="45.44405" lon="5.90451">
        <ele>1086.16</ele>
        <time>2022-06-16T14:14:09.000Z</time>
      </trkpt>
      <trkpt lat="45.444" lon="5.90426">
        <ele>1081.04</ele>
        <time>2022-06-16T14:14:25.000Z</time>
      </trkpt>
      <trkpt lat="45.44395" lon="5.90401">
        <ele>1076.85</ele>
        <time>2022-06-16T14:14:40.000Z</time>
      </trkpt>
      <trkpt lat="45.44392" lon="5.90375">
        <ele>1073.58</ele>
        <time>2022-06-16T14:14:55.000Z</time>
      </trkpt>
      <trkpt lat="45.44394" lon="5.90349">
        <ele>1073.37</ele>
        <time>2022-06-16T14:15:11.000Z</time>
      </trkpt>
      <trkpt lat="45.44393" lon="5.90323">
        <ele>1071.27</ele>
        <time>2022-06-16T14:15:28.000Z</time>
      </trkpt>
    </trkseg>
  </trk>
</gpx>